<?xml version="1.0" encoding="UTF-8" standalone="no" ?>
<gpx xmlns="http://www.topografix.com/GPX/1/1" xmlns:xsi="http://www.w3.org/2001/XMLSchema-instance" xsi:schemaLocation="http://www.topografix.com/GPX/1/1 http://www.topografix.com/GPX/1/1/gpx.xsd" version="1.1" creator="VisuGPX - https://www.visugpx.com">
  <metadata>
    <name>2021-07-13 12:49:01</name>
  </metadata>
  <trk>
    <name><![CDATA[2021-07-13 12:49:01]]></name>
    <trkseg>
      <trkpt lat="44.82614" lon="4.6802">
        <ele>154.43</ele>
        <time>2021-07-13T06:58:03Z</time>
      </trkpt>
      <trkpt lat="44.82616" lon="4.68018">
        <ele>155.87</ele>
        <time>2021-07-13T06:58:31Z</time>
      </trkpt>
      <trkpt lat="44.82617" lon="4.68019">
        <ele>155.39</ele>
        <time>2021-07-13T06:58:51Z</time>
      </trkpt>
      <trkpt lat="44.82616" lon="4.68017">
        <ele>154.91</ele>
        <time>2021-07-13T06:59:00Z</time>
      </trkpt>
      <trkpt lat="44.82615" lon="4.68016">
        <ele>152.99</ele>
        <time>2021-07-13T06:59:22Z</time>
      </trkpt>
      <trkpt lat="44.82614" lon="4.68018">
        <ele>152.99</ele>
        <time>2021-07-13T06:59:57Z</time>
      </trkpt>
      <trkpt lat="44.82617" lon="4.68017">
        <ele>149.14</ele>
        <time>2021-07-13T07:00:34Z</time>
      </trkpt>
      <trkpt lat="44.82613" lon="4.68018">
        <ele>148.66</ele>
        <time>2021-07-13T07:00:53Z</time>
      </trkpt>
      <trkpt lat="44.82615" lon="4.68019">
        <ele>149.62</ele>
        <time>2021-07-13T07:01:17Z</time>
      </trkpt>
      <trkpt lat="44.82615" lon="4.6802">
        <ele>150.1</ele>
        <time>2021-07-13T07:01:32Z</time>
      </trkpt>
      <trkpt lat="44.82614" lon="4.68018">
        <ele>148.18</ele>
        <time>2021-07-13T07:02:04Z</time>
      </trkpt>
      <trkpt lat="44.82615" lon="4.68018">
        <ele>149.14</ele>
        <time>2021-07-13T07:02:38Z</time>
      </trkpt>
      <trkpt lat="44.82614" lon="4.68018">
        <ele>151.06</ele>
        <time>2021-07-13T07:03:09Z</time>
      </trkpt>
      <trkpt lat="44.82614" lon="4.68019">
        <ele>153.47</ele>
        <time>2021-07-13T07:03:20Z</time>
      </trkpt>
      <trkpt lat="44.82613" lon="4.68021">
        <ele>154.43</ele>
        <time>2021-07-13T07:03:33Z</time>
      </trkpt>
      <trkpt lat="44.82612" lon="4.68019">
        <ele>153.95</ele>
        <time>2021-07-13T07:03:54Z</time>
      </trkpt>
      <trkpt lat="44.82615" lon="4.68029">
        <ele>155.87</ele>
        <time>2021-07-13T07:04:08Z</time>
      </trkpt>
      <trkpt lat="44.82615" lon="4.6803">
        <ele>155.87</ele>
        <time>2021-07-13T07:04:09Z</time>
      </trkpt>
      <trkpt lat="44.82635" lon="4.68048">
        <ele>156.83</ele>
        <time>2021-07-13T07:04:26Z</time>
      </trkpt>
      <trkpt lat="44.82642" lon="4.68041">
        <ele>157.79</ele>
        <time>2021-07-13T07:04:39Z</time>
      </trkpt>
      <trkpt lat="44.8265" lon="4.68035">
        <ele>157.79</ele>
        <time>2021-07-13T07:04:45Z</time>
      </trkpt>
      <trkpt lat="44.82655" lon="4.67995">
        <ele>160.2</ele>
        <time>2021-07-13T07:05:05Z</time>
      </trkpt>
      <trkpt lat="44.82646" lon="4.67958">
        <ele>156.83</ele>
        <time>2021-07-13T07:05:25Z</time>
      </trkpt>
      <trkpt lat="44.82636" lon="4.67934">
        <ele>155.87</ele>
        <time>2021-07-13T07:05:42Z</time>
      </trkpt>
      <trkpt lat="44.82632" lon="4.67917">
        <ele>155.87</ele>
        <time>2021-07-13T07:05:53Z</time>
      </trkpt>
      <trkpt lat="44.82631" lon="4.67895">
        <ele>156.83</ele>
        <time>2021-07-13T07:06:10Z</time>
      </trkpt>
      <trkpt lat="44.82627" lon="4.67857">
        <ele>158.75</ele>
        <time>2021-07-13T07:06:29Z</time>
      </trkpt>
      <trkpt lat="44.82631" lon="4.67811">
        <ele>159.24</ele>
        <time>2021-07-13T07:06:50Z</time>
      </trkpt>
      <trkpt lat="44.82635" lon="4.67779">
        <ele>156.83</ele>
        <time>2021-07-13T07:07:07Z</time>
      </trkpt>
      <trkpt lat="44.82636" lon="4.67772">
        <ele>157.31</ele>
        <time>2021-07-13T07:07:11Z</time>
      </trkpt>
      <trkpt lat="44.82668" lon="4.67751">
        <ele>155.39</ele>
        <time>2021-07-13T07:07:32Z</time>
      </trkpt>
      <trkpt lat="44.82697" lon="4.67736">
        <ele>155.87</ele>
        <time>2021-07-13T07:07:51Z</time>
      </trkpt>
      <trkpt lat="44.82727" lon="4.67721">
        <ele>158.75</ele>
        <time>2021-07-13T07:08:11Z</time>
      </trkpt>
      <trkpt lat="44.82756" lon="4.67705">
        <ele>159.72</ele>
        <time>2021-07-13T07:08:31Z</time>
      </trkpt>
      <trkpt lat="44.82783" lon="4.6769">
        <ele>162.12</ele>
        <time>2021-07-13T07:08:49Z</time>
      </trkpt>
      <trkpt lat="44.82807" lon="4.67676">
        <ele>161.64</ele>
        <time>2021-07-13T07:09:07Z</time>
      </trkpt>
      <trkpt lat="44.82832" lon="4.67664">
        <ele>160.2</ele>
        <time>2021-07-13T07:09:24Z</time>
      </trkpt>
      <trkpt lat="44.82855" lon="4.67637">
        <ele>161.64</ele>
        <time>2021-07-13T07:09:43Z</time>
      </trkpt>
      <trkpt lat="44.82859" lon="4.67626">
        <ele>163.08</ele>
        <time>2021-07-13T07:09:49Z</time>
      </trkpt>
      <trkpt lat="44.82898" lon="4.67622">
        <ele>174.62</ele>
        <time>2021-07-13T07:10:11Z</time>
      </trkpt>
      <trkpt lat="44.82903" lon="4.67629">
        <ele>177.98</ele>
        <time>2021-07-13T07:10:19Z</time>
      </trkpt>
      <trkpt lat="44.82912" lon="4.67652">
        <ele>180.87</ele>
        <time>2021-07-13T07:10:35Z</time>
      </trkpt>
      <trkpt lat="44.82919" lon="4.67667">
        <ele>182.31</ele>
        <time>2021-07-13T07:10:55Z</time>
      </trkpt>
      <trkpt lat="44.82923" lon="4.67671">
        <ele>177.02</ele>
        <time>2021-07-13T07:11:18Z</time>
      </trkpt>
      <trkpt lat="44.82929" lon="4.6768">
        <ele>173.66</ele>
        <time>2021-07-13T07:11:33Z</time>
      </trkpt>
      <trkpt lat="44.82928" lon="4.67686">
        <ele>175.58</ele>
        <time>2021-07-13T07:11:38Z</time>
      </trkpt>
      <trkpt lat="44.82929" lon="4.67693">
        <ele>177.98</ele>
        <time>2021-07-13T07:11:44Z</time>
      </trkpt>
      <trkpt lat="44.82945" lon="4.67725">
        <ele>182.79</ele>
        <time>2021-07-13T07:12:02Z</time>
      </trkpt>
      <trkpt lat="44.82951" lon="4.67748">
        <ele>168.37</ele>
        <time>2021-07-13T07:12:18Z</time>
      </trkpt>
      <trkpt lat="44.82962" lon="4.67778">
        <ele>165.48</ele>
        <time>2021-07-13T07:12:33Z</time>
      </trkpt>
      <trkpt lat="44.82975" lon="4.67813">
        <ele>162.6</ele>
        <time>2021-07-13T07:12:52Z</time>
      </trkpt>
      <trkpt lat="44.82988" lon="4.67851">
        <ele>161.64</ele>
        <time>2021-07-13T07:13:08Z</time>
      </trkpt>
      <trkpt lat="44.8299" lon="4.67882">
        <ele>159.24</ele>
        <time>2021-07-13T07:13:23Z</time>
      </trkpt>
      <trkpt lat="44.82988" lon="4.67921">
        <ele>156.83</ele>
        <time>2021-07-13T07:13:41Z</time>
      </trkpt>
      <trkpt lat="44.82985" lon="4.67958">
        <ele>156.83</ele>
        <time>2021-07-13T07:13:59Z</time>
      </trkpt>
      <trkpt lat="44.82986" lon="4.68009">
        <ele>158.27</ele>
        <time>2021-07-13T07:14:21Z</time>
      </trkpt>
      <trkpt lat="44.82984" lon="4.68043">
        <ele>159.72</ele>
        <time>2021-07-13T07:14:39Z</time>
      </trkpt>
      <trkpt lat="44.82981" lon="4.68081">
        <ele>160.68</ele>
        <time>2021-07-13T07:15:00Z</time>
      </trkpt>
      <trkpt lat="44.82977" lon="4.68115">
        <ele>163.56</ele>
        <time>2021-07-13T07:15:20Z</time>
      </trkpt>
      <trkpt lat="44.82979" lon="4.6816">
        <ele>163.56</ele>
        <time>2021-07-13T07:15:38Z</time>
      </trkpt>
      <trkpt lat="44.82981" lon="4.68185">
        <ele>164.04</ele>
        <time>2021-07-13T07:15:56Z</time>
      </trkpt>
      <trkpt lat="44.82983" lon="4.68193">
        <ele>163.56</ele>
        <time>2021-07-13T07:16:01Z</time>
      </trkpt>
      <trkpt lat="44.82997" lon="4.68211">
        <ele>164.04</ele>
        <time>2021-07-13T07:16:19Z</time>
      </trkpt>
      <trkpt lat="44.83" lon="4.68217">
        <ele>165</ele>
        <time>2021-07-13T07:16:40Z</time>
      </trkpt>
      <trkpt lat="44.83004" lon="4.68223">
        <ele>165.48</ele>
        <time>2021-07-13T07:16:59Z</time>
      </trkpt>
      <trkpt lat="44.83013" lon="4.6822">
        <ele>167.41</ele>
        <time>2021-07-13T07:17:17Z</time>
      </trkpt>
      <trkpt lat="44.83023" lon="4.6822">
        <ele>165</ele>
        <time>2021-07-13T07:17:38Z</time>
      </trkpt>
      <trkpt lat="44.83031" lon="4.68227">
        <ele>162.6</ele>
        <time>2021-07-13T07:17:55Z</time>
      </trkpt>
      <trkpt lat="44.83041" lon="4.68233">
        <ele>173.66</ele>
        <time>2021-07-13T07:18:14Z</time>
      </trkpt>
      <trkpt lat="44.83047" lon="4.68238">
        <ele>185.67</ele>
        <time>2021-07-13T07:18:32Z</time>
      </trkpt>
      <trkpt lat="44.83052" lon="4.68246">
        <ele>187.59</ele>
        <time>2021-07-13T07:18:51Z</time>
      </trkpt>
      <trkpt lat="44.83061" lon="4.68253">
        <ele>188.56</ele>
        <time>2021-07-13T07:19:12Z</time>
      </trkpt>
      <trkpt lat="44.83074" lon="4.68259">
        <ele>191.92</ele>
        <time>2021-07-13T07:19:35Z</time>
      </trkpt>
      <trkpt lat="44.83078" lon="4.68268">
        <ele>195.28</ele>
        <time>2021-07-13T07:19:57Z</time>
      </trkpt>
      <trkpt lat="44.83079" lon="4.68271">
        <ele>200.57</ele>
        <time>2021-07-13T07:20:16Z</time>
      </trkpt>
      <trkpt lat="44.83092" lon="4.68273">
        <ele>205.38</ele>
        <time>2021-07-13T07:20:35Z</time>
      </trkpt>
      <trkpt lat="44.83097" lon="4.68276">
        <ele>204.9</ele>
        <time>2021-07-13T07:20:49Z</time>
      </trkpt>
      <trkpt lat="44.83099" lon="4.68279">
        <ele>206.82</ele>
        <time>2021-07-13T07:21:08Z</time>
      </trkpt>
      <trkpt lat="44.83099" lon="4.68278">
        <ele>205.86</ele>
        <time>2021-07-13T07:21:30Z</time>
      </trkpt>
      <trkpt lat="44.83104" lon="4.68283">
        <ele>207.3</ele>
        <time>2021-07-13T07:21:44Z</time>
      </trkpt>
      <trkpt lat="44.83109" lon="4.68288">
        <ele>210.67</ele>
        <time>2021-07-13T07:22:04Z</time>
      </trkpt>
      <trkpt lat="44.83115" lon="4.68288">
        <ele>216.91</ele>
        <time>2021-07-13T07:22:20Z</time>
      </trkpt>
      <trkpt lat="44.8312" lon="4.68295">
        <ele>222.68</ele>
        <time>2021-07-13T07:22:39Z</time>
      </trkpt>
      <trkpt lat="44.83129" lon="4.6831">
        <ele>226.53</ele>
        <time>2021-07-13T07:22:58Z</time>
      </trkpt>
      <trkpt lat="44.83129" lon="4.68318">
        <ele>229.89</ele>
        <time>2021-07-13T07:23:20Z</time>
      </trkpt>
      <trkpt lat="44.83134" lon="4.68326">
        <ele>236.62</ele>
        <time>2021-07-13T07:23:45Z</time>
      </trkpt>
      <trkpt lat="44.83143" lon="4.68333">
        <ele>242.39</ele>
        <time>2021-07-13T07:24:08Z</time>
      </trkpt>
      <trkpt lat="44.83152" lon="4.68325">
        <ele>245.75</ele>
        <time>2021-07-13T07:24:27Z</time>
      </trkpt>
      <trkpt lat="44.83162" lon="4.68317">
        <ele>243.35</ele>
        <time>2021-07-13T07:24:46Z</time>
      </trkpt>
      <trkpt lat="44.83172" lon="4.68326">
        <ele>245.75</ele>
        <time>2021-07-13T07:25:02Z</time>
      </trkpt>
      <trkpt lat="44.83176" lon="4.68339">
        <ele>245.75</ele>
        <time>2021-07-13T07:25:21Z</time>
      </trkpt>
      <trkpt lat="44.83184" lon="4.68354">
        <ele>246.23</ele>
        <time>2021-07-13T07:25:42Z</time>
      </trkpt>
      <trkpt lat="44.83193" lon="4.68369">
        <ele>245.75</ele>
        <time>2021-07-13T07:26:04Z</time>
      </trkpt>
      <trkpt lat="44.83205" lon="4.68382">
        <ele>249.12</ele>
        <time>2021-07-13T07:26:24Z</time>
      </trkpt>
      <trkpt lat="44.83213" lon="4.6839">
        <ele>247.68</ele>
        <time>2021-07-13T07:26:44Z</time>
      </trkpt>
      <trkpt lat="44.83216" lon="4.68409">
        <ele>251.52</ele>
        <time>2021-07-13T07:27:08Z</time>
      </trkpt>
      <trkpt lat="44.83228" lon="4.68431">
        <ele>257.29</ele>
        <time>2021-07-13T07:27:29Z</time>
      </trkpt>
      <trkpt lat="44.83243" lon="4.68447">
        <ele>267.38</ele>
        <time>2021-07-13T07:27:48Z</time>
      </trkpt>
      <trkpt lat="44.83253" lon="4.6846">
        <ele>267.86</ele>
        <time>2021-07-13T07:28:05Z</time>
      </trkpt>
      <trkpt lat="44.83265" lon="4.68474">
        <ele>268.83</ele>
        <time>2021-07-13T07:28:26Z</time>
      </trkpt>
      <trkpt lat="44.83272" lon="4.68497">
        <ele>283.25</ele>
        <time>2021-07-13T07:28:50Z</time>
      </trkpt>
      <trkpt lat="44.83293" lon="4.68492">
        <ele>285.65</ele>
        <time>2021-07-13T07:29:07Z</time>
      </trkpt>
      <trkpt lat="44.83298" lon="4.6848">
        <ele>286.61</ele>
        <time>2021-07-13T07:29:16Z</time>
      </trkpt>
      <trkpt lat="44.83307" lon="4.68471">
        <ele>289.01</ele>
        <time>2021-07-13T07:29:32Z</time>
      </trkpt>
      <trkpt lat="44.83312" lon="4.68468">
        <ele>289.49</ele>
        <time>2021-07-13T07:29:36Z</time>
      </trkpt>
      <trkpt lat="44.83336" lon="4.68462">
        <ele>292.38</ele>
        <time>2021-07-13T07:29:57Z</time>
      </trkpt>
      <trkpt lat="44.83353" lon="4.6846">
        <ele>293.34</ele>
        <time>2021-07-13T07:30:12Z</time>
      </trkpt>
      <trkpt lat="44.83371" lon="4.68444">
        <ele>297.18</ele>
        <time>2021-07-13T07:30:29Z</time>
      </trkpt>
      <trkpt lat="44.83391" lon="4.68428">
        <ele>299.59</ele>
        <time>2021-07-13T07:30:45Z</time>
      </trkpt>
      <trkpt lat="44.83407" lon="4.68414">
        <ele>300.55</ele>
        <time>2021-07-13T07:31:00Z</time>
      </trkpt>
      <trkpt lat="44.83411" lon="4.68408">
        <ele>300.07</ele>
        <time>2021-07-13T07:31:05Z</time>
      </trkpt>
      <trkpt lat="44.83416" lon="4.68402">
        <ele>299.59</ele>
        <time>2021-07-13T07:31:09Z</time>
      </trkpt>
      <trkpt lat="44.83437" lon="4.68377">
        <ele>297.67</ele>
        <time>2021-07-13T07:31:29Z</time>
      </trkpt>
      <trkpt lat="44.83447" lon="4.68366">
        <ele>296.22</ele>
        <time>2021-07-13T07:31:44Z</time>
      </trkpt>
      <trkpt lat="44.83448" lon="4.68369">
        <ele>296.7</ele>
        <time>2021-07-13T07:32:04Z</time>
      </trkpt>
      <trkpt lat="44.83449" lon="4.68367">
        <ele>294.78</ele>
        <time>2021-07-13T07:32:22Z</time>
      </trkpt>
      <trkpt lat="44.8345" lon="4.68366">
        <ele>293.34</ele>
        <time>2021-07-13T07:32:46Z</time>
      </trkpt>
      <trkpt lat="44.8345" lon="4.68367">
        <ele>296.7</ele>
        <time>2021-07-13T07:33:06Z</time>
      </trkpt>
      <trkpt lat="44.83447" lon="4.68371">
        <ele>298.15</ele>
        <time>2021-07-13T07:33:29Z</time>
      </trkpt>
      <trkpt lat="44.83448" lon="4.6837">
        <ele>299.59</ele>
        <time>2021-07-13T07:33:51Z</time>
      </trkpt>
      <trkpt lat="44.8345" lon="4.68366">
        <ele>298.63</ele>
        <time>2021-07-13T07:34:14Z</time>
      </trkpt>
      <trkpt lat="44.83451" lon="4.68369">
        <ele>292.86</ele>
        <time>2021-07-13T07:34:39Z</time>
      </trkpt>
      <trkpt lat="44.83461" lon="4.68361">
        <ele>293.34</ele>
        <time>2021-07-13T07:34:52Z</time>
      </trkpt>
      <trkpt lat="44.83482" lon="4.68349">
        <ele>295.74</ele>
        <time>2021-07-13T07:35:08Z</time>
      </trkpt>
      <trkpt lat="44.83507" lon="4.68344">
        <ele>296.7</ele>
        <time>2021-07-13T07:35:28Z</time>
      </trkpt>
      <trkpt lat="44.83524" lon="4.68336">
        <ele>299.11</ele>
        <time>2021-07-13T07:35:43Z</time>
      </trkpt>
      <trkpt lat="44.83536" lon="4.68323">
        <ele>300.07</ele>
        <time>2021-07-13T07:35:54Z</time>
      </trkpt>
      <trkpt lat="44.83554" lon="4.68315">
        <ele>300.55</ele>
        <time>2021-07-13T07:36:08Z</time>
      </trkpt>
      <trkpt lat="44.83567" lon="4.68297">
        <ele>301.99</ele>
        <time>2021-07-13T07:36:27Z</time>
      </trkpt>
      <trkpt lat="44.83572" lon="4.68289">
        <ele>301.99</ele>
        <time>2021-07-13T07:36:45Z</time>
      </trkpt>
      <trkpt lat="44.83571" lon="4.68268">
        <ele>304.88</ele>
        <time>2021-07-13T07:36:57Z</time>
      </trkpt>
      <trkpt lat="44.83579" lon="4.68239">
        <ele>308.24</ele>
        <time>2021-07-13T07:37:15Z</time>
      </trkpt>
      <trkpt lat="44.83585" lon="4.68215">
        <ele>317.37</ele>
        <time>2021-07-13T07:37:30Z</time>
      </trkpt>
      <trkpt lat="44.83593" lon="4.68187">
        <ele>321.22</ele>
        <time>2021-07-13T07:37:46Z</time>
      </trkpt>
      <trkpt lat="44.83607" lon="4.68159">
        <ele>322.18</ele>
        <time>2021-07-13T07:38:05Z</time>
      </trkpt>
      <trkpt lat="44.83628" lon="4.68153">
        <ele>327.95</ele>
        <time>2021-07-13T07:38:22Z</time>
      </trkpt>
      <trkpt lat="44.8363" lon="4.68144">
        <ele>333.71</ele>
        <time>2021-07-13T07:38:36Z</time>
      </trkpt>
      <trkpt lat="44.83611" lon="4.68138">
        <ele>334.2</ele>
        <time>2021-07-13T07:38:53Z</time>
      </trkpt>
      <trkpt lat="44.83593" lon="4.68126">
        <ele>333.71</ele>
        <time>2021-07-13T07:39:12Z</time>
      </trkpt>
      <trkpt lat="44.83575" lon="4.68108">
        <ele>312.09</ele>
        <time>2021-07-13T07:39:31Z</time>
      </trkpt>
      <trkpt lat="44.83562" lon="4.68088">
        <ele>306.8</ele>
        <time>2021-07-13T07:39:48Z</time>
      </trkpt>
      <trkpt lat="44.83553" lon="4.68079">
        <ele>308.24</ele>
        <time>2021-07-13T07:39:56Z</time>
      </trkpt>
      <trkpt lat="44.83539" lon="4.68051">
        <ele>310.64</ele>
        <time>2021-07-13T07:40:15Z</time>
      </trkpt>
      <trkpt lat="44.83521" lon="4.68038">
        <ele>312.57</ele>
        <time>2021-07-13T07:40:30Z</time>
      </trkpt>
      <trkpt lat="44.83506" lon="4.68026">
        <ele>316.41</ele>
        <time>2021-07-13T07:40:44Z</time>
      </trkpt>
      <trkpt lat="44.83491" lon="4.68006">
        <ele>319.3</ele>
        <time>2021-07-13T07:41:00Z</time>
      </trkpt>
      <trkpt lat="44.83473" lon="4.67991">
        <ele>322.66</ele>
        <time>2021-07-13T07:41:17Z</time>
      </trkpt>
      <trkpt lat="44.83461" lon="4.67975">
        <ele>322.66</ele>
        <time>2021-07-13T07:41:29Z</time>
      </trkpt>
      <trkpt lat="44.83448" lon="4.67955">
        <ele>321.7</ele>
        <time>2021-07-13T07:41:45Z</time>
      </trkpt>
      <trkpt lat="44.8343" lon="4.67941">
        <ele>321.22</ele>
        <time>2021-07-13T07:42:02Z</time>
      </trkpt>
      <trkpt lat="44.83437" lon="4.67938">
        <ele>319.78</ele>
        <time>2021-07-13T07:42:16Z</time>
      </trkpt>
      <trkpt lat="44.83447" lon="4.67941">
        <ele>318.33</ele>
        <time>2021-07-13T07:42:31Z</time>
      </trkpt>
      <trkpt lat="44.83459" lon="4.67946">
        <ele>313.05</ele>
        <time>2021-07-13T07:42:48Z</time>
      </trkpt>
      <trkpt lat="44.83473" lon="4.67948">
        <ele>315.45</ele>
        <time>2021-07-13T07:43:07Z</time>
      </trkpt>
      <trkpt lat="44.83482" lon="4.67925">
        <ele>317.85</ele>
        <time>2021-07-13T07:43:27Z</time>
      </trkpt>
      <trkpt lat="44.83487" lon="4.67907">
        <ele>323.14</ele>
        <time>2021-07-13T07:43:44Z</time>
      </trkpt>
      <trkpt lat="44.83501" lon="4.67881">
        <ele>330.35</ele>
        <time>2021-07-13T07:44:03Z</time>
      </trkpt>
      <trkpt lat="44.83521" lon="4.67864">
        <ele>329.87</ele>
        <time>2021-07-13T07:44:23Z</time>
      </trkpt>
      <trkpt lat="44.83542" lon="4.67856">
        <ele>326.5</ele>
        <time>2021-07-13T07:44:41Z</time>
      </trkpt>
      <trkpt lat="44.83544" lon="4.67857">
        <ele>326.99</ele>
        <time>2021-07-13T07:44:43Z</time>
      </trkpt>
      <trkpt lat="44.83558" lon="4.67859">
        <ele>329.87</ele>
        <time>2021-07-13T07:45:03Z</time>
      </trkpt>
      <trkpt lat="44.8357" lon="4.67862">
        <ele>329.39</ele>
        <time>2021-07-13T07:45:22Z</time>
      </trkpt>
      <trkpt lat="44.83587" lon="4.67868">
        <ele>334.68</ele>
        <time>2021-07-13T07:45:43Z</time>
      </trkpt>
      <trkpt lat="44.83604" lon="4.67881">
        <ele>340.92</ele>
        <time>2021-07-13T07:46:06Z</time>
      </trkpt>
      <trkpt lat="44.83622" lon="4.67879">
        <ele>348.13</ele>
        <time>2021-07-13T07:46:26Z</time>
      </trkpt>
      <trkpt lat="44.83638" lon="4.67881">
        <ele>357.75</ele>
        <time>2021-07-13T07:46:45Z</time>
      </trkpt>
      <trkpt lat="44.83656" lon="4.67886">
        <ele>361.59</ele>
        <time>2021-07-13T07:47:05Z</time>
      </trkpt>
      <trkpt lat="44.83673" lon="4.67866">
        <ele>363.04</ele>
        <time>2021-07-13T07:47:26Z</time>
      </trkpt>
      <trkpt lat="44.83682" lon="4.67871">
        <ele>367.84</ele>
        <time>2021-07-13T07:47:48Z</time>
      </trkpt>
      <trkpt lat="44.83688" lon="4.67879">
        <ele>371.69</ele>
        <time>2021-07-13T07:48:26Z</time>
      </trkpt>
      <trkpt lat="44.83694" lon="4.67869">
        <ele>371.69</ele>
        <time>2021-07-13T07:48:44Z</time>
      </trkpt>
      <trkpt lat="44.83714" lon="4.67876">
        <ele>373.13</ele>
        <time>2021-07-13T07:49:01Z</time>
      </trkpt>
      <trkpt lat="44.83736" lon="4.67876">
        <ele>373.61</ele>
        <time>2021-07-13T07:49:24Z</time>
      </trkpt>
      <trkpt lat="44.83756" lon="4.67879">
        <ele>373.13</ele>
        <time>2021-07-13T07:49:44Z</time>
      </trkpt>
      <trkpt lat="44.83777" lon="4.6787">
        <ele>371.21</ele>
        <time>2021-07-13T07:50:02Z</time>
      </trkpt>
      <trkpt lat="44.838" lon="4.67872">
        <ele>369.28</ele>
        <time>2021-07-13T07:50:22Z</time>
      </trkpt>
      <trkpt lat="44.83815" lon="4.67873">
        <ele>370.73</ele>
        <time>2021-07-13T07:50:39Z</time>
      </trkpt>
      <trkpt lat="44.83838" lon="4.67872">
        <ele>372.17</ele>
        <time>2021-07-13T07:51:00Z</time>
      </trkpt>
      <trkpt lat="44.83861" lon="4.67868">
        <ele>367.36</ele>
        <time>2021-07-13T07:51:18Z</time>
      </trkpt>
      <trkpt lat="44.83882" lon="4.67876">
        <ele>362.55</ele>
        <time>2021-07-13T07:51:37Z</time>
      </trkpt>
      <trkpt lat="44.83897" lon="4.67878">
        <ele>361.59</ele>
        <time>2021-07-13T07:51:51Z</time>
      </trkpt>
      <trkpt lat="44.83916" lon="4.67879">
        <ele>361.59</ele>
        <time>2021-07-13T07:52:10Z</time>
      </trkpt>
      <trkpt lat="44.83931" lon="4.67879">
        <ele>374.09</ele>
        <time>2021-07-13T07:52:26Z</time>
      </trkpt>
      <trkpt lat="44.83923" lon="4.67895">
        <ele>383.22</ele>
        <time>2021-07-13T07:52:44Z</time>
      </trkpt>
      <trkpt lat="44.83905" lon="4.67904">
        <ele>390.43</ele>
        <time>2021-07-13T07:53:04Z</time>
      </trkpt>
      <trkpt lat="44.83899" lon="4.67904">
        <ele>396.68</ele>
        <time>2021-07-13T07:53:21Z</time>
      </trkpt>
      <trkpt lat="44.8389" lon="4.67923">
        <ele>399.08</ele>
        <time>2021-07-13T07:53:38Z</time>
      </trkpt>
      <trkpt lat="44.83878" lon="4.67937">
        <ele>405.81</ele>
        <time>2021-07-13T07:53:56Z</time>
      </trkpt>
      <trkpt lat="44.83893" lon="4.67939">
        <ele>413.02</ele>
        <time>2021-07-13T07:54:15Z</time>
      </trkpt>
      <trkpt lat="44.83904" lon="4.67948">
        <ele>418.79</ele>
        <time>2021-07-13T07:54:33Z</time>
      </trkpt>
      <trkpt lat="44.83915" lon="4.67971">
        <ele>425.52</ele>
        <time>2021-07-13T07:54:54Z</time>
      </trkpt>
      <trkpt lat="44.83922" lon="4.67987">
        <ele>430.81</ele>
        <time>2021-07-13T07:55:14Z</time>
      </trkpt>
      <trkpt lat="44.83917" lon="4.67997">
        <ele>438.02</ele>
        <time>2021-07-13T07:55:38Z</time>
      </trkpt>
      <trkpt lat="44.83914" lon="4.6803">
        <ele>438.5</ele>
        <time>2021-07-13T07:55:54Z</time>
      </trkpt>
      <trkpt lat="44.8391" lon="4.68053">
        <ele>439.46</ele>
        <time>2021-07-13T07:56:12Z</time>
      </trkpt>
      <trkpt lat="44.8391" lon="4.68068">
        <ele>440.9</ele>
        <time>2021-07-13T07:56:26Z</time>
      </trkpt>
      <trkpt lat="44.83904" lon="4.68074">
        <ele>439.46</ele>
        <time>2021-07-13T07:56:40Z</time>
      </trkpt>
      <trkpt lat="44.83923" lon="4.68068">
        <ele>439.46</ele>
        <time>2021-07-13T07:56:58Z</time>
      </trkpt>
      <trkpt lat="44.83938" lon="4.68068">
        <ele>441.38</ele>
        <time>2021-07-13T07:57:14Z</time>
      </trkpt>
      <trkpt lat="44.83955" lon="4.68071">
        <ele>441.86</ele>
        <time>2021-07-13T07:57:33Z</time>
      </trkpt>
      <trkpt lat="44.83974" lon="4.68078">
        <ele>445.23</ele>
        <time>2021-07-13T07:57:52Z</time>
      </trkpt>
      <trkpt lat="44.83986" lon="4.68077">
        <ele>452.44</ele>
        <time>2021-07-13T07:58:10Z</time>
      </trkpt>
      <trkpt lat="44.83997" lon="4.68093">
        <ele>454.84</ele>
        <time>2021-07-13T07:58:31Z</time>
      </trkpt>
      <trkpt lat="44.84002" lon="4.68101">
        <ele>458.69</ele>
        <time>2021-07-13T07:58:51Z</time>
      </trkpt>
      <trkpt lat="44.83996" lon="4.68105">
        <ele>461.57</ele>
        <time>2021-07-13T07:59:15Z</time>
      </trkpt>
      <trkpt lat="44.83997" lon="4.6811">
        <ele>469.74</ele>
        <time>2021-07-13T07:59:45Z</time>
      </trkpt>
      <trkpt lat="44.83984" lon="4.68119">
        <ele>465.42</ele>
        <time>2021-07-13T08:00:02Z</time>
      </trkpt>
      <trkpt lat="44.8397" lon="4.68127">
        <ele>460.13</ele>
        <time>2021-07-13T08:00:23Z</time>
      </trkpt>
      <trkpt lat="44.83963" lon="4.68131">
        <ele>459.65</ele>
        <time>2021-07-13T08:00:48Z</time>
      </trkpt>
      <trkpt lat="44.83968" lon="4.68125">
        <ele>455.32</ele>
        <time>2021-07-13T08:01:14Z</time>
      </trkpt>
      <trkpt lat="44.83967" lon="4.68121">
        <ele>450.52</ele>
        <time>2021-07-13T08:01:42Z</time>
      </trkpt>
      <trkpt lat="44.83966" lon="4.68123">
        <ele>453.4</ele>
        <time>2021-07-13T08:02:07Z</time>
      </trkpt>
      <trkpt lat="44.8397" lon="4.68111">
        <ele>455.32</ele>
        <time>2021-07-13T08:02:27Z</time>
      </trkpt>
      <trkpt lat="44.8397" lon="4.68107">
        <ele>452.92</ele>
        <time>2021-07-13T08:02:56Z</time>
      </trkpt>
      <trkpt lat="44.83966" lon="4.68107">
        <ele>451</ele>
        <time>2021-07-13T08:03:10Z</time>
      </trkpt>
      <trkpt lat="44.83965" lon="4.6812">
        <ele>451.48</ele>
        <time>2021-07-13T08:03:30Z</time>
      </trkpt>
      <trkpt lat="44.8396" lon="4.68133">
        <ele>451.96</ele>
        <time>2021-07-13T08:03:44Z</time>
      </trkpt>
      <trkpt lat="44.83964" lon="4.68162">
        <ele>449.55</ele>
        <time>2021-07-13T08:03:59Z</time>
      </trkpt>
      <trkpt lat="44.83965" lon="4.68167">
        <ele>449.55</ele>
        <time>2021-07-13T08:04:02Z</time>
      </trkpt>
      <trkpt lat="44.83975" lon="4.68191">
        <ele>449.07</ele>
        <time>2021-07-13T08:04:19Z</time>
      </trkpt>
      <trkpt lat="44.83984" lon="4.68208">
        <ele>451</ele>
        <time>2021-07-13T08:04:32Z</time>
      </trkpt>
      <trkpt lat="44.83988" lon="4.68226">
        <ele>451.48</ele>
        <time>2021-07-13T08:04:45Z</time>
      </trkpt>
      <trkpt lat="44.83989" lon="4.68234">
        <ele>453.4</ele>
        <time>2021-07-13T08:05:01Z</time>
      </trkpt>
      <trkpt lat="44.83993" lon="4.68247">
        <ele>454.36</ele>
        <time>2021-07-13T08:05:15Z</time>
      </trkpt>
      <trkpt lat="44.83995" lon="4.68253">
        <ele>454.36</ele>
        <time>2021-07-13T08:05:29Z</time>
      </trkpt>
      <trkpt lat="44.83996" lon="4.68272">
        <ele>456.76</ele>
        <time>2021-07-13T08:05:43Z</time>
      </trkpt>
      <trkpt lat="44.83999" lon="4.68275">
        <ele>456.76</ele>
        <time>2021-07-13T08:05:54Z</time>
      </trkpt>
      <trkpt lat="44.84" lon="4.68278">
        <ele>455.8</ele>
        <time>2021-07-13T08:06:05Z</time>
      </trkpt>
      <trkpt lat="44.83997" lon="4.68287">
        <ele>455.8</ele>
        <time>2021-07-13T08:06:13Z</time>
      </trkpt>
      <trkpt lat="44.83997" lon="4.68297">
        <ele>456.28</ele>
        <time>2021-07-13T08:06:29Z</time>
      </trkpt>
      <trkpt lat="44.83991" lon="4.68316">
        <ele>457.24</ele>
        <time>2021-07-13T08:06:44Z</time>
      </trkpt>
      <trkpt lat="44.83987" lon="4.68331">
        <ele>460.13</ele>
        <time>2021-07-13T08:06:54Z</time>
      </trkpt>
      <trkpt lat="44.83982" lon="4.68355">
        <ele>463.01</ele>
        <time>2021-07-13T08:07:08Z</time>
      </trkpt>
      <trkpt lat="44.83982" lon="4.68396">
        <ele>464.93</ele>
        <time>2021-07-13T08:07:29Z</time>
      </trkpt>
      <trkpt lat="44.83991" lon="4.68429">
        <ele>464.93</ele>
        <time>2021-07-13T08:07:46Z</time>
      </trkpt>
      <trkpt lat="44.83994" lon="4.68436">
        <ele>463.49</ele>
        <time>2021-07-13T08:07:59Z</time>
      </trkpt>
      <trkpt lat="44.83991" lon="4.68431">
        <ele>464.45</ele>
        <time>2021-07-13T08:08:12Z</time>
      </trkpt>
      <trkpt lat="44.83995" lon="4.68434">
        <ele>463.49</ele>
        <time>2021-07-13T08:08:20Z</time>
      </trkpt>
      <trkpt lat="44.84011" lon="4.68424">
        <ele>463.01</ele>
        <time>2021-07-13T08:08:35Z</time>
      </trkpt>
      <trkpt lat="44.8401" lon="4.68424">
        <ele>463.49</ele>
        <time>2021-07-13T08:08:46Z</time>
      </trkpt>
      <trkpt lat="44.8401" lon="4.68417">
        <ele>463.49</ele>
        <time>2021-07-13T08:08:53Z</time>
      </trkpt>
      <trkpt lat="44.84009" lon="4.68408">
        <ele>465.42</ele>
        <time>2021-07-13T08:09:00Z</time>
      </trkpt>
      <trkpt lat="44.84011" lon="4.68394">
        <ele>468.3</ele>
        <time>2021-07-13T08:09:11Z</time>
      </trkpt>
      <trkpt lat="44.84016" lon="4.68366">
        <ele>466.38</ele>
        <time>2021-07-13T08:09:27Z</time>
      </trkpt>
      <trkpt lat="44.84023" lon="4.68335">
        <ele>463.49</ele>
        <time>2021-07-13T08:09:44Z</time>
      </trkpt>
      <trkpt lat="44.84027" lon="4.68324">
        <ele>464.93</ele>
        <time>2021-07-13T08:09:55Z</time>
      </trkpt>
      <trkpt lat="44.84031" lon="4.68315">
        <ele>464.93</ele>
        <time>2021-07-13T08:10:01Z</time>
      </trkpt>
      <trkpt lat="44.84033" lon="4.68312">
        <ele>464.93</ele>
        <time>2021-07-13T08:10:03Z</time>
      </trkpt>
      <trkpt lat="44.84037" lon="4.68294">
        <ele>464.93</ele>
        <time>2021-07-13T08:10:15Z</time>
      </trkpt>
      <trkpt lat="44.84038" lon="4.68289">
        <ele>464.93</ele>
        <time>2021-07-13T08:10:18Z</time>
      </trkpt>
      <trkpt lat="44.84049" lon="4.68273">
        <ele>466.38</ele>
        <time>2021-07-13T08:10:32Z</time>
      </trkpt>
      <trkpt lat="44.84055" lon="4.68269">
        <ele>469.26</ele>
        <time>2021-07-13T08:10:41Z</time>
      </trkpt>
      <trkpt lat="44.84068" lon="4.68266">
        <ele>474.55</ele>
        <time>2021-07-13T08:10:56Z</time>
      </trkpt>
      <trkpt lat="44.8408" lon="4.68253">
        <ele>475.99</ele>
        <time>2021-07-13T08:11:10Z</time>
      </trkpt>
      <trkpt lat="44.84094" lon="4.68245">
        <ele>475.99</ele>
        <time>2021-07-13T08:11:24Z</time>
      </trkpt>
      <trkpt lat="44.841" lon="4.68245">
        <ele>476.95</ele>
        <time>2021-07-13T08:11:37Z</time>
      </trkpt>
      <trkpt lat="44.84116" lon="4.68242">
        <ele>478.87</ele>
        <time>2021-07-13T08:11:52Z</time>
      </trkpt>
      <trkpt lat="44.84133" lon="4.68245">
        <ele>481.28</ele>
        <time>2021-07-13T08:12:07Z</time>
      </trkpt>
      <trkpt lat="44.84147" lon="4.68251">
        <ele>484.64</ele>
        <time>2021-07-13T08:12:21Z</time>
      </trkpt>
      <trkpt lat="44.84164" lon="4.68254">
        <ele>485.6</ele>
        <time>2021-07-13T08:12:35Z</time>
      </trkpt>
      <trkpt lat="44.84184" lon="4.68258">
        <ele>487.53</ele>
        <time>2021-07-13T08:12:51Z</time>
      </trkpt>
      <trkpt lat="44.84199" lon="4.68258">
        <ele>487.05</ele>
        <time>2021-07-13T08:13:05Z</time>
      </trkpt>
      <trkpt lat="44.84216" lon="4.68267">
        <ele>488.01</ele>
        <time>2021-07-13T08:13:20Z</time>
      </trkpt>
      <trkpt lat="44.84233" lon="4.6827">
        <ele>488.01</ele>
        <time>2021-07-13T08:13:34Z</time>
      </trkpt>
      <trkpt lat="44.84247" lon="4.68272">
        <ele>487.53</ele>
        <time>2021-07-13T08:13:49Z</time>
      </trkpt>
      <trkpt lat="44.84267" lon="4.68277">
        <ele>489.93</ele>
        <time>2021-07-13T08:14:05Z</time>
      </trkpt>
      <trkpt lat="44.84281" lon="4.68277">
        <ele>491.85</ele>
        <time>2021-07-13T08:14:20Z</time>
      </trkpt>
      <trkpt lat="44.84296" lon="4.68278">
        <ele>495.22</ele>
        <time>2021-07-13T08:14:36Z</time>
      </trkpt>
      <trkpt lat="44.84302" lon="4.68275">
        <ele>500.02</ele>
        <time>2021-07-13T08:14:52Z</time>
      </trkpt>
      <trkpt lat="44.84303" lon="4.68275">
        <ele>503.39</ele>
        <time>2021-07-13T08:15:16Z</time>
      </trkpt>
      <trkpt lat="44.84311" lon="4.68276">
        <ele>500.98</ele>
        <time>2021-07-13T08:15:46Z</time>
      </trkpt>
      <trkpt lat="44.84318" lon="4.68283">
        <ele>503.39</ele>
        <time>2021-07-13T08:16:07Z</time>
      </trkpt>
      <trkpt lat="44.84332" lon="4.68282">
        <ele>505.79</ele>
        <time>2021-07-13T08:16:23Z</time>
      </trkpt>
      <trkpt lat="44.84344" lon="4.68283">
        <ele>507.23</ele>
        <time>2021-07-13T08:16:39Z</time>
      </trkpt>
      <trkpt lat="44.84359" lon="4.6828">
        <ele>504.35</ele>
        <time>2021-07-13T08:16:56Z</time>
      </trkpt>
      <trkpt lat="44.84374" lon="4.68277">
        <ele>505.79</ele>
        <time>2021-07-13T08:17:12Z</time>
      </trkpt>
      <trkpt lat="44.84382" lon="4.68278">
        <ele>506.27</ele>
        <time>2021-07-13T08:17:26Z</time>
      </trkpt>
      <trkpt lat="44.84387" lon="4.68271">
        <ele>513.96</ele>
        <time>2021-07-13T08:17:47Z</time>
      </trkpt>
      <trkpt lat="44.84396" lon="4.68273">
        <ele>517.81</ele>
        <time>2021-07-13T08:18:04Z</time>
      </trkpt>
      <trkpt lat="44.84407" lon="4.68273">
        <ele>521.17</ele>
        <time>2021-07-13T08:18:21Z</time>
      </trkpt>
      <trkpt lat="44.84418" lon="4.68268">
        <ele>521.17</ele>
        <time>2021-07-13T08:18:37Z</time>
      </trkpt>
      <trkpt lat="44.84427" lon="4.68267">
        <ele>523.09</ele>
        <time>2021-07-13T08:18:51Z</time>
      </trkpt>
      <trkpt lat="44.84437" lon="4.68266">
        <ele>527.9</ele>
        <time>2021-07-13T08:19:08Z</time>
      </trkpt>
      <trkpt lat="44.84449" lon="4.68266">
        <ele>528.86</ele>
        <time>2021-07-13T08:19:23Z</time>
      </trkpt>
      <trkpt lat="44.84458" lon="4.6827">
        <ele>530.3</ele>
        <time>2021-07-13T08:19:47Z</time>
      </trkpt>
      <trkpt lat="44.84458" lon="4.68269">
        <ele>529.34</ele>
        <time>2021-07-13T08:20:04Z</time>
      </trkpt>
      <trkpt lat="44.84453" lon="4.68261">
        <ele>527.9</ele>
        <time>2021-07-13T08:20:18Z</time>
      </trkpt>
      <trkpt lat="44.84452" lon="4.68261">
        <ele>529.82</ele>
        <time>2021-07-13T08:20:31Z</time>
      </trkpt>
      <trkpt lat="44.84456" lon="4.68265">
        <ele>531.27</ele>
        <time>2021-07-13T08:20:44Z</time>
      </trkpt>
      <trkpt lat="44.84465" lon="4.68264">
        <ele>532.71</ele>
        <time>2021-07-13T08:20:56Z</time>
      </trkpt>
      <trkpt lat="44.84477" lon="4.68264">
        <ele>536.55</ele>
        <time>2021-07-13T08:21:10Z</time>
      </trkpt>
      <trkpt lat="44.8449" lon="4.68255">
        <ele>540.88</ele>
        <time>2021-07-13T08:21:26Z</time>
      </trkpt>
      <trkpt lat="44.84501" lon="4.68255">
        <ele>543.28</ele>
        <time>2021-07-13T08:21:40Z</time>
      </trkpt>
      <trkpt lat="44.84509" lon="4.68251">
        <ele>545.69</ele>
        <time>2021-07-13T08:21:47Z</time>
      </trkpt>
      <trkpt lat="44.8452" lon="4.68245">
        <ele>543.28</ele>
        <time>2021-07-13T08:21:58Z</time>
      </trkpt>
      <trkpt lat="44.84527" lon="4.68242">
        <ele>544.24</ele>
        <time>2021-07-13T08:22:08Z</time>
      </trkpt>
      <trkpt lat="44.84539" lon="4.68248">
        <ele>543.76</ele>
        <time>2021-07-13T08:22:19Z</time>
      </trkpt>
      <trkpt lat="44.84557" lon="4.68248">
        <ele>541.36</ele>
        <time>2021-07-13T08:22:33Z</time>
      </trkpt>
      <trkpt lat="44.84568" lon="4.68247">
        <ele>540.4</ele>
        <time>2021-07-13T08:22:45Z</time>
      </trkpt>
      <trkpt lat="44.84583" lon="4.68247">
        <ele>539.44</ele>
        <time>2021-07-13T08:22:57Z</time>
      </trkpt>
      <trkpt lat="44.84594" lon="4.68241">
        <ele>542.32</ele>
        <time>2021-07-13T08:23:07Z</time>
      </trkpt>
      <trkpt lat="44.84605" lon="4.6823">
        <ele>547.13</ele>
        <time>2021-07-13T08:23:18Z</time>
      </trkpt>
      <trkpt lat="44.84607" lon="4.6823">
        <ele>547.61</ele>
        <time>2021-07-13T08:23:19Z</time>
      </trkpt>
      <trkpt lat="44.84616" lon="4.68227">
        <ele>548.57</ele>
        <time>2021-07-13T08:23:26Z</time>
      </trkpt>
      <trkpt lat="44.84621" lon="4.6822">
        <ele>553.86</ele>
        <time>2021-07-13T08:23:39Z</time>
      </trkpt>
      <trkpt lat="44.84633" lon="4.68218">
        <ele>551.45</ele>
        <time>2021-07-13T08:23:53Z</time>
      </trkpt>
      <trkpt lat="44.84647" lon="4.68207">
        <ele>551.45</ele>
        <time>2021-07-13T08:24:06Z</time>
      </trkpt>
      <trkpt lat="44.84657" lon="4.68196">
        <ele>554.34</ele>
        <time>2021-07-13T08:24:18Z</time>
      </trkpt>
      <trkpt lat="44.84672" lon="4.68189">
        <ele>555.78</ele>
        <time>2021-07-13T08:24:32Z</time>
      </trkpt>
      <trkpt lat="44.84686" lon="4.68182">
        <ele>552.41</ele>
        <time>2021-07-13T08:24:46Z</time>
      </trkpt>
      <trkpt lat="44.84693" lon="4.68167">
        <ele>554.34</ele>
        <time>2021-07-13T08:25:01Z</time>
      </trkpt>
      <trkpt lat="44.84703" lon="4.68147">
        <ele>554.34</ele>
        <time>2021-07-13T08:25:15Z</time>
      </trkpt>
      <trkpt lat="44.84716" lon="4.68133">
        <ele>554.82</ele>
        <time>2021-07-13T08:25:30Z</time>
      </trkpt>
      <trkpt lat="44.84728" lon="4.68118">
        <ele>555.3</ele>
        <time>2021-07-13T08:25:45Z</time>
      </trkpt>
      <trkpt lat="44.84742" lon="4.68105">
        <ele>556.74</ele>
        <time>2021-07-13T08:26:00Z</time>
      </trkpt>
      <trkpt lat="44.84751" lon="4.68098">
        <ele>556.74</ele>
        <time>2021-07-13T08:26:13Z</time>
      </trkpt>
      <trkpt lat="44.8476" lon="4.68093">
        <ele>556.74</ele>
        <time>2021-07-13T08:26:27Z</time>
      </trkpt>
      <trkpt lat="44.84763" lon="4.68094">
        <ele>556.74</ele>
        <time>2021-07-13T08:26:39Z</time>
      </trkpt>
      <trkpt lat="44.84768" lon="4.68093">
        <ele>557.7</ele>
        <time>2021-07-13T08:26:53Z</time>
      </trkpt>
      <trkpt lat="44.8478" lon="4.68094">
        <ele>560.59</ele>
        <time>2021-07-13T08:27:07Z</time>
      </trkpt>
      <trkpt lat="44.84786" lon="4.68094">
        <ele>561.55</ele>
        <time>2021-07-13T08:27:12Z</time>
      </trkpt>
      <trkpt lat="44.84801" lon="4.68094">
        <ele>562.51</ele>
        <time>2021-07-13T08:27:25Z</time>
      </trkpt>
      <trkpt lat="44.84811" lon="4.68089">
        <ele>562.51</ele>
        <time>2021-07-13T08:27:38Z</time>
      </trkpt>
      <trkpt lat="44.8481" lon="4.68082">
        <ele>565.87</ele>
        <time>2021-07-13T08:28:08Z</time>
      </trkpt>
      <trkpt lat="44.84812" lon="4.6808">
        <ele>570.68</ele>
        <time>2021-07-13T08:28:17Z</time>
      </trkpt>
      <trkpt lat="44.84823" lon="4.68075">
        <ele>579.81</ele>
        <time>2021-07-13T08:28:27Z</time>
      </trkpt>
      <trkpt lat="44.84831" lon="4.68063">
        <ele>587.02</ele>
        <time>2021-07-13T08:28:35Z</time>
      </trkpt>
      <trkpt lat="44.84846" lon="4.68063">
        <ele>585.1</ele>
        <time>2021-07-13T08:28:45Z</time>
      </trkpt>
      <trkpt lat="44.84865" lon="4.68062">
        <ele>582.7</ele>
        <time>2021-07-13T08:28:58Z</time>
      </trkpt>
      <trkpt lat="44.84869" lon="4.68062">
        <ele>581.73</ele>
        <time>2021-07-13T08:29:02Z</time>
      </trkpt>
      <trkpt lat="44.84873" lon="4.68061">
        <ele>581.73</ele>
        <time>2021-07-13T08:29:05Z</time>
      </trkpt>
      <trkpt lat="44.84883" lon="4.68059">
        <ele>581.25</ele>
        <time>2021-07-13T08:29:11Z</time>
      </trkpt>
      <trkpt lat="44.84895" lon="4.68059">
        <ele>580.29</ele>
        <time>2021-07-13T08:29:21Z</time>
      </trkpt>
      <trkpt lat="44.849" lon="4.68057">
        <ele>580.77</ele>
        <time>2021-07-13T08:29:26Z</time>
      </trkpt>
      <trkpt lat="44.84904" lon="4.68056">
        <ele>581.73</ele>
        <time>2021-07-13T08:29:29Z</time>
      </trkpt>
      <trkpt lat="44.8492" lon="4.68059">
        <ele>583.66</ele>
        <time>2021-07-13T08:29:44Z</time>
      </trkpt>
      <trkpt lat="44.84929" lon="4.68057">
        <ele>583.66</ele>
        <time>2021-07-13T08:30:01Z</time>
      </trkpt>
      <trkpt lat="44.84944" lon="4.68057">
        <ele>583.66</ele>
        <time>2021-07-13T08:30:13Z</time>
      </trkpt>
      <trkpt lat="44.84952" lon="4.68056">
        <ele>584.62</ele>
        <time>2021-07-13T08:30:21Z</time>
      </trkpt>
      <trkpt lat="44.84955" lon="4.68057">
        <ele>584.62</ele>
        <time>2021-07-13T08:30:23Z</time>
      </trkpt>
      <trkpt lat="44.84965" lon="4.68056">
        <ele>584.14</ele>
        <time>2021-07-13T08:30:33Z</time>
      </trkpt>
      <trkpt lat="44.84971" lon="4.68054">
        <ele>583.18</ele>
        <time>2021-07-13T08:30:48Z</time>
      </trkpt>
      <trkpt lat="44.84977" lon="4.6804">
        <ele>587.02</ele>
        <time>2021-07-13T08:31:03Z</time>
      </trkpt>
      <trkpt lat="44.84978" lon="4.68037">
        <ele>588.95</ele>
        <time>2021-07-13T08:31:15Z</time>
      </trkpt>
      <trkpt lat="44.84977" lon="4.68034">
        <ele>587.98</ele>
        <time>2021-07-13T08:31:39Z</time>
      </trkpt>
      <trkpt lat="44.84979" lon="4.68023">
        <ele>591.35</ele>
        <time>2021-07-13T08:31:51Z</time>
      </trkpt>
      <trkpt lat="44.8498" lon="4.68016">
        <ele>593.75</ele>
        <time>2021-07-13T08:32:00Z</time>
      </trkpt>
      <trkpt lat="44.84979" lon="4.68001">
        <ele>597.12</ele>
        <time>2021-07-13T08:32:13Z</time>
      </trkpt>
      <trkpt lat="44.84982" lon="4.67991">
        <ele>590.87</ele>
        <time>2021-07-13T08:32:23Z</time>
      </trkpt>
      <trkpt lat="44.84983" lon="4.6799">
        <ele>590.39</ele>
        <time>2021-07-13T08:32:24Z</time>
      </trkpt>
      <trkpt lat="44.84984" lon="4.67981">
        <ele>589.91</ele>
        <time>2021-07-13T08:32:28Z</time>
      </trkpt>
      <trkpt lat="44.84986" lon="4.67973">
        <ele>589.43</ele>
        <time>2021-07-13T08:32:32Z</time>
      </trkpt>
      <trkpt lat="44.84996" lon="4.67956">
        <ele>586.06</ele>
        <time>2021-07-13T08:32:46Z</time>
      </trkpt>
      <trkpt lat="44.85003" lon="4.67946">
        <ele>585.58</ele>
        <time>2021-07-13T08:32:59Z</time>
      </trkpt>
      <trkpt lat="44.8501" lon="4.67933">
        <ele>585.58</ele>
        <time>2021-07-13T08:33:12Z</time>
      </trkpt>
      <trkpt lat="44.85013" lon="4.67924">
        <ele>586.54</ele>
        <time>2021-07-13T08:33:26Z</time>
      </trkpt>
      <trkpt lat="44.85021" lon="4.67906">
        <ele>589.43</ele>
        <time>2021-07-13T08:33:40Z</time>
      </trkpt>
      <trkpt lat="44.85025" lon="4.67902">
        <ele>589.43</ele>
        <time>2021-07-13T08:33:45Z</time>
      </trkpt>
      <trkpt lat="44.85035" lon="4.67891">
        <ele>588.46</ele>
        <time>2021-07-13T08:33:58Z</time>
      </trkpt>
      <trkpt lat="44.85036" lon="4.67889">
        <ele>587.02</ele>
        <time>2021-07-13T08:34:10Z</time>
      </trkpt>
      <trkpt lat="44.8504" lon="4.67888">
        <ele>586.06</ele>
        <time>2021-07-13T08:34:26Z</time>
      </trkpt>
      <trkpt lat="44.85044" lon="4.6788">
        <ele>587.5</ele>
        <time>2021-07-13T08:34:35Z</time>
      </trkpt>
      <trkpt lat="44.85047" lon="4.67876">
        <ele>587.98</ele>
        <time>2021-07-13T08:34:39Z</time>
      </trkpt>
      <trkpt lat="44.85055" lon="4.67865">
        <ele>587.02</ele>
        <time>2021-07-13T08:34:53Z</time>
      </trkpt>
      <trkpt lat="44.85057" lon="4.67864">
        <ele>587.02</ele>
        <time>2021-07-13T08:34:58Z</time>
      </trkpt>
      <trkpt lat="44.85067" lon="4.67841">
        <ele>585.58</ele>
        <time>2021-07-13T08:35:15Z</time>
      </trkpt>
      <trkpt lat="44.85073" lon="4.67828">
        <ele>585.58</ele>
        <time>2021-07-13T08:35:30Z</time>
      </trkpt>
      <trkpt lat="44.85074" lon="4.67828">
        <ele>586.06</ele>
        <time>2021-07-13T08:35:50Z</time>
      </trkpt>
      <trkpt lat="44.85074" lon="4.67824">
        <ele>585.58</ele>
        <time>2021-07-13T08:36:12Z</time>
      </trkpt>
      <trkpt lat="44.85074" lon="4.67823">
        <ele>585.1</ele>
        <time>2021-07-13T08:36:14Z</time>
      </trkpt>
      <trkpt lat="44.85072" lon="4.67817">
        <ele>585.1</ele>
        <time>2021-07-13T08:36:19Z</time>
      </trkpt>
      <trkpt lat="44.85064" lon="4.67805">
        <ele>585.1</ele>
        <time>2021-07-13T08:36:34Z</time>
      </trkpt>
      <trkpt lat="44.85064" lon="4.67805">
        <ele>585.1</ele>
        <time>2021-07-13T08:36:37Z</time>
      </trkpt>
      <trkpt lat="44.85068" lon="4.67807">
        <ele>585.58</ele>
        <time>2021-07-13T08:36:41Z</time>
      </trkpt>
      <trkpt lat="44.85076" lon="4.67819">
        <ele>585.58</ele>
        <time>2021-07-13T08:36:51Z</time>
      </trkpt>
      <trkpt lat="44.85106" lon="4.6782">
        <ele>583.66</ele>
        <time>2021-07-13T08:37:14Z</time>
      </trkpt>
      <trkpt lat="44.85128" lon="4.67816">
        <ele>584.14</ele>
        <time>2021-07-13T08:37:31Z</time>
      </trkpt>
      <trkpt lat="44.85151" lon="4.67814">
        <ele>585.1</ele>
        <time>2021-07-13T08:37:49Z</time>
      </trkpt>
      <trkpt lat="44.85164" lon="4.67816">
        <ele>590.39</ele>
        <time>2021-07-13T08:38:02Z</time>
      </trkpt>
      <trkpt lat="44.85166" lon="4.67816">
        <ele>590.87</ele>
        <time>2021-07-13T08:38:03Z</time>
      </trkpt>
      <trkpt lat="44.85187" lon="4.67812">
        <ele>591.83</ele>
        <time>2021-07-13T08:38:19Z</time>
      </trkpt>
      <trkpt lat="44.85191" lon="4.67811">
        <ele>591.35</ele>
        <time>2021-07-13T08:38:22Z</time>
      </trkpt>
      <trkpt lat="44.8521" lon="4.67804">
        <ele>586.06</ele>
        <time>2021-07-13T08:38:37Z</time>
      </trkpt>
      <trkpt lat="44.85211" lon="4.67804">
        <ele>585.58</ele>
        <time>2021-07-13T08:38:38Z</time>
      </trkpt>
      <trkpt lat="44.85234" lon="4.67788">
        <ele>582.7</ele>
        <time>2021-07-13T08:38:58Z</time>
      </trkpt>
      <trkpt lat="44.85258" lon="4.67776">
        <ele>582.22</ele>
        <time>2021-07-13T08:39:15Z</time>
      </trkpt>
      <trkpt lat="44.85284" lon="4.67777">
        <ele>583.66</ele>
        <time>2021-07-13T08:39:33Z</time>
      </trkpt>
      <trkpt lat="44.85287" lon="4.67778">
        <ele>583.66</ele>
        <time>2021-07-13T08:39:35Z</time>
      </trkpt>
      <trkpt lat="44.85299" lon="4.67784">
        <ele>583.18</ele>
        <time>2021-07-13T08:39:44Z</time>
      </trkpt>
      <trkpt lat="44.85304" lon="4.67787">
        <ele>583.18</ele>
        <time>2021-07-13T08:39:48Z</time>
      </trkpt>
      <trkpt lat="44.85311" lon="4.6779">
        <ele>582.7</ele>
        <time>2021-07-13T08:39:53Z</time>
      </trkpt>
      <trkpt lat="44.8534" lon="4.67804">
        <ele>579.33</ele>
        <time>2021-07-13T08:40:13Z</time>
      </trkpt>
      <trkpt lat="44.85365" lon="4.67805">
        <ele>577.41</ele>
        <time>2021-07-13T08:40:31Z</time>
      </trkpt>
      <trkpt lat="44.85391" lon="4.67793">
        <ele>576.93</ele>
        <time>2021-07-13T08:40:50Z</time>
      </trkpt>
      <trkpt lat="44.85414" lon="4.6778">
        <ele>578.85</ele>
        <time>2021-07-13T08:41:09Z</time>
      </trkpt>
      <trkpt lat="44.85435" lon="4.67778">
        <ele>580.77</ele>
        <time>2021-07-13T08:41:25Z</time>
      </trkpt>
      <trkpt lat="44.85456" lon="4.67794">
        <ele>583.18</ele>
        <time>2021-07-13T08:41:40Z</time>
      </trkpt>
      <trkpt lat="44.85477" lon="4.67815">
        <ele>588.46</ele>
        <time>2021-07-13T08:41:58Z</time>
      </trkpt>
      <trkpt lat="44.85497" lon="4.67824">
        <ele>593.27</ele>
        <time>2021-07-13T08:42:15Z</time>
      </trkpt>
      <trkpt lat="44.85515" lon="4.67824">
        <ele>593.27</ele>
        <time>2021-07-13T08:42:29Z</time>
      </trkpt>
      <trkpt lat="44.85528" lon="4.67822">
        <ele>593.27</ele>
        <time>2021-07-13T08:42:38Z</time>
      </trkpt>
      <trkpt lat="44.85533" lon="4.67821">
        <ele>593.75</ele>
        <time>2021-07-13T08:42:42Z</time>
      </trkpt>
      <trkpt lat="44.85546" lon="4.67819">
        <ele>595.67</ele>
        <time>2021-07-13T08:42:51Z</time>
      </trkpt>
      <trkpt lat="44.8556" lon="4.67813">
        <ele>605.29</ele>
        <time>2021-07-13T08:43:06Z</time>
      </trkpt>
      <trkpt lat="44.85573" lon="4.67808">
        <ele>611.54</ele>
        <time>2021-07-13T08:43:17Z</time>
      </trkpt>
      <trkpt lat="44.85605" lon="4.67797">
        <ele>607.69</ele>
        <time>2021-07-13T08:43:35Z</time>
      </trkpt>
      <trkpt lat="44.85624" lon="4.67794">
        <ele>612.5</ele>
        <time>2021-07-13T08:43:50Z</time>
      </trkpt>
      <trkpt lat="44.85645" lon="4.67796">
        <ele>611.54</ele>
        <time>2021-07-13T08:44:05Z</time>
      </trkpt>
      <trkpt lat="44.85661" lon="4.67804">
        <ele>616.34</ele>
        <time>2021-07-13T08:44:20Z</time>
      </trkpt>
      <trkpt lat="44.85677" lon="4.6781">
        <ele>628.36</ele>
        <time>2021-07-13T08:44:37Z</time>
      </trkpt>
      <trkpt lat="44.85693" lon="4.67814">
        <ele>637.01</ele>
        <time>2021-07-13T08:44:52Z</time>
      </trkpt>
      <trkpt lat="44.85712" lon="4.67819">
        <ele>644.22</ele>
        <time>2021-07-13T08:45:10Z</time>
      </trkpt>
      <trkpt lat="44.85724" lon="4.67812">
        <ele>652.87</ele>
        <time>2021-07-13T08:45:26Z</time>
      </trkpt>
      <trkpt lat="44.85735" lon="4.6781">
        <ele>659.6</ele>
        <time>2021-07-13T08:45:38Z</time>
      </trkpt>
      <trkpt lat="44.85745" lon="4.67812">
        <ele>670.18</ele>
        <time>2021-07-13T08:45:53Z</time>
      </trkpt>
      <trkpt lat="44.85761" lon="4.6781">
        <ele>667.77</ele>
        <time>2021-07-13T08:46:07Z</time>
      </trkpt>
      <trkpt lat="44.85783" lon="4.67807">
        <ele>662.49</ele>
        <time>2021-07-13T08:46:23Z</time>
      </trkpt>
      <trkpt lat="44.85788" lon="4.67807">
        <ele>661.52</ele>
        <time>2021-07-13T08:46:26Z</time>
      </trkpt>
      <trkpt lat="44.8584" lon="4.67798">
        <ele>623.07</ele>
        <time>2021-07-13T08:46:42Z</time>
      </trkpt>
      <trkpt lat="44.85855" lon="4.67798">
        <ele>628.84</ele>
        <time>2021-07-13T08:46:57Z</time>
      </trkpt>
      <trkpt lat="44.85873" lon="4.67798">
        <ele>633.65</ele>
        <time>2021-07-13T08:47:11Z</time>
      </trkpt>
      <trkpt lat="44.8588" lon="4.67799">
        <ele>633.65</ele>
        <time>2021-07-13T08:47:17Z</time>
      </trkpt>
      <trkpt lat="44.85904" lon="4.67803">
        <ele>634.13</ele>
        <time>2021-07-13T08:47:36Z</time>
      </trkpt>
      <trkpt lat="44.85922" lon="4.6781">
        <ele>639.89</ele>
        <time>2021-07-13T08:47:53Z</time>
      </trkpt>
      <trkpt lat="44.8594" lon="4.67815">
        <ele>643.26</ele>
        <time>2021-07-13T08:48:08Z</time>
      </trkpt>
      <trkpt lat="44.85952" lon="4.6782">
        <ele>652.87</ele>
        <time>2021-07-13T08:48:24Z</time>
      </trkpt>
      <trkpt lat="44.85967" lon="4.67827">
        <ele>660.56</ele>
        <time>2021-07-13T08:48:40Z</time>
      </trkpt>
      <trkpt lat="44.85983" lon="4.67831">
        <ele>668.73</ele>
        <time>2021-07-13T08:48:55Z</time>
      </trkpt>
      <trkpt lat="44.86008" lon="4.67828">
        <ele>662.01</ele>
        <time>2021-07-13T08:49:09Z</time>
      </trkpt>
      <trkpt lat="44.86036" lon="4.67836">
        <ele>656.24</ele>
        <time>2021-07-13T08:49:28Z</time>
      </trkpt>
      <trkpt lat="44.86056" lon="4.67846">
        <ele>654.31</ele>
        <time>2021-07-13T08:49:43Z</time>
      </trkpt>
      <trkpt lat="44.86076" lon="4.67859">
        <ele>659.12</ele>
        <time>2021-07-13T08:50:01Z</time>
      </trkpt>
      <trkpt lat="44.86084" lon="4.67862">
        <ele>660.56</ele>
        <time>2021-07-13T08:50:08Z</time>
      </trkpt>
      <trkpt lat="44.861" lon="4.67876">
        <ele>663.93</ele>
        <time>2021-07-13T08:50:25Z</time>
      </trkpt>
      <trkpt lat="44.86111" lon="4.67885">
        <ele>669.7</ele>
        <time>2021-07-13T08:50:37Z</time>
      </trkpt>
      <trkpt lat="44.86128" lon="4.67899">
        <ele>675.46</ele>
        <time>2021-07-13T08:50:53Z</time>
      </trkpt>
      <trkpt lat="44.8615" lon="4.67914">
        <ele>676.42</ele>
        <time>2021-07-13T08:51:09Z</time>
      </trkpt>
      <trkpt lat="44.86159" lon="4.67917">
        <ele>675.46</ele>
        <time>2021-07-13T08:51:15Z</time>
      </trkpt>
      <trkpt lat="44.86181" lon="4.67936">
        <ele>674.02</ele>
        <time>2021-07-13T08:51:32Z</time>
      </trkpt>
      <trkpt lat="44.86199" lon="4.67953">
        <ele>673.54</ele>
        <time>2021-07-13T08:51:47Z</time>
      </trkpt>
      <trkpt lat="44.86215" lon="4.67972">
        <ele>669.22</ele>
        <time>2021-07-13T08:52:02Z</time>
      </trkpt>
      <trkpt lat="44.8624" lon="4.67987">
        <ele>664.89</ele>
        <time>2021-07-13T08:52:20Z</time>
      </trkpt>
      <trkpt lat="44.86247" lon="4.67989">
        <ele>661.52</ele>
        <time>2021-07-13T08:52:25Z</time>
      </trkpt>
      <trkpt lat="44.8626" lon="4.67995">
        <ele>660.08</ele>
        <time>2021-07-13T08:52:40Z</time>
      </trkpt>
      <trkpt lat="44.86262" lon="4.67991">
        <ele>660.56</ele>
        <time>2021-07-13T08:52:52Z</time>
      </trkpt>
      <trkpt lat="44.86263" lon="4.67991">
        <ele>659.12</ele>
        <time>2021-07-13T08:53:01Z</time>
      </trkpt>
      <trkpt lat="44.8626" lon="4.67991">
        <ele>655.76</ele>
        <time>2021-07-13T08:53:07Z</time>
      </trkpt>
      <trkpt lat="44.86243" lon="4.6797">
        <ele>653.83</ele>
        <time>2021-07-13T08:53:25Z</time>
      </trkpt>
      <trkpt lat="44.86227" lon="4.67943">
        <ele>654.31</ele>
        <time>2021-07-13T08:53:44Z</time>
      </trkpt>
      <trkpt lat="44.86213" lon="4.67922">
        <ele>656.24</ele>
        <time>2021-07-13T08:54:01Z</time>
      </trkpt>
      <trkpt lat="44.86199" lon="4.67909">
        <ele>663.45</ele>
        <time>2021-07-13T08:54:18Z</time>
      </trkpt>
      <trkpt lat="44.86184" lon="4.67893">
        <ele>667.29</ele>
        <time>2021-07-13T08:54:34Z</time>
      </trkpt>
      <trkpt lat="44.86171" lon="4.6788">
        <ele>670.66</ele>
        <time>2021-07-13T08:54:48Z</time>
      </trkpt>
      <trkpt lat="44.8616" lon="4.67872">
        <ele>673.06</ele>
        <time>2021-07-13T08:54:57Z</time>
      </trkpt>
      <trkpt lat="44.86147" lon="4.67855">
        <ele>678.83</ele>
        <time>2021-07-13T08:55:13Z</time>
      </trkpt>
      <trkpt lat="44.86135" lon="4.67833">
        <ele>679.31</ele>
        <time>2021-07-13T08:55:27Z</time>
      </trkpt>
      <trkpt lat="44.86123" lon="4.67809">
        <ele>682.19</ele>
        <time>2021-07-13T08:55:42Z</time>
      </trkpt>
      <trkpt lat="44.86109" lon="4.67785">
        <ele>683.15</ele>
        <time>2021-07-13T08:55:58Z</time>
      </trkpt>
      <trkpt lat="44.86091" lon="4.67766">
        <ele>682.67</ele>
        <time>2021-07-13T08:56:14Z</time>
      </trkpt>
      <trkpt lat="44.86069" lon="4.67738">
        <ele>679.79</ele>
        <time>2021-07-13T08:56:34Z</time>
      </trkpt>
      <trkpt lat="44.86047" lon="4.67708">
        <ele>679.31</ele>
        <time>2021-07-13T08:56:55Z</time>
      </trkpt>
      <trkpt lat="44.86031" lon="4.67682">
        <ele>679.31</ele>
        <time>2021-07-13T08:57:12Z</time>
      </trkpt>
      <trkpt lat="44.86014" lon="4.6766">
        <ele>679.79</ele>
        <time>2021-07-13T08:57:29Z</time>
      </trkpt>
      <trkpt lat="44.85992" lon="4.6764">
        <ele>680.27</ele>
        <time>2021-07-13T08:57:48Z</time>
      </trkpt>
      <trkpt lat="44.8599" lon="4.67636">
        <ele>679.79</ele>
        <time>2021-07-13T08:57:54Z</time>
      </trkpt>
      <trkpt lat="44.85998" lon="4.67621">
        <ele>679.79</ele>
        <time>2021-07-13T08:58:12Z</time>
      </trkpt>
      <trkpt lat="44.85998" lon="4.67623">
        <ele>680.27</ele>
        <time>2021-07-13T08:58:27Z</time>
      </trkpt>
      <trkpt lat="44.85994" lon="4.67633">
        <ele>681.71</ele>
        <time>2021-07-13T08:58:34Z</time>
      </trkpt>
      <trkpt lat="44.85991" lon="4.67634">
        <ele>681.23</ele>
        <time>2021-07-13T08:58:45Z</time>
      </trkpt>
      <trkpt lat="44.85991" lon="4.67635">
        <ele>680.75</ele>
        <time>2021-07-13T08:59:05Z</time>
      </trkpt>
      <trkpt lat="44.85991" lon="4.67636">
        <ele>679.79</ele>
        <time>2021-07-13T08:59:35Z</time>
      </trkpt>
      <trkpt lat="44.8599" lon="4.67635">
        <ele>678.83</ele>
        <time>2021-07-13T08:59:47Z</time>
      </trkpt>
      <trkpt lat="44.8599" lon="4.67636">
        <ele>678.83</ele>
        <time>2021-07-13T08:59:57Z</time>
      </trkpt>
      <trkpt lat="44.85985" lon="4.67636">
        <ele>679.79</ele>
        <time>2021-07-13T09:00:01Z</time>
      </trkpt>
      <trkpt lat="44.85955" lon="4.67624">
        <ele>683.15</ele>
        <time>2021-07-13T09:00:23Z</time>
      </trkpt>
      <trkpt lat="44.85928" lon="4.67618">
        <ele>687</ele>
        <time>2021-07-13T09:00:42Z</time>
      </trkpt>
      <trkpt lat="44.85901" lon="4.67609">
        <ele>691.33</ele>
        <time>2021-07-13T09:01:02Z</time>
      </trkpt>
      <trkpt lat="44.85878" lon="4.67593">
        <ele>694.69</ele>
        <time>2021-07-13T09:01:20Z</time>
      </trkpt>
      <trkpt lat="44.8585" lon="4.67571">
        <ele>694.21</ele>
        <time>2021-07-13T09:01:40Z</time>
      </trkpt>
      <trkpt lat="44.85825" lon="4.67563">
        <ele>695.17</ele>
        <time>2021-07-13T09:01:58Z</time>
      </trkpt>
      <trkpt lat="44.85806" lon="4.67559">
        <ele>693.73</ele>
        <time>2021-07-13T09:02:12Z</time>
      </trkpt>
      <trkpt lat="44.85779" lon="4.67558">
        <ele>690.36</ele>
        <time>2021-07-13T09:02:30Z</time>
      </trkpt>
      <trkpt lat="44.85756" lon="4.67559">
        <ele>687.96</ele>
        <time>2021-07-13T09:02:46Z</time>
      </trkpt>
      <trkpt lat="44.85737" lon="4.67562">
        <ele>692.29</ele>
        <time>2021-07-13T09:03:02Z</time>
      </trkpt>
      <trkpt lat="44.85736" lon="4.67562">
        <ele>692.77</ele>
        <time>2021-07-13T09:03:03Z</time>
      </trkpt>
      <trkpt lat="44.85716" lon="4.6757">
        <ele>696.13</ele>
        <time>2021-07-13T09:03:18Z</time>
      </trkpt>
      <trkpt lat="44.85704" lon="4.67572">
        <ele>699.5</ele>
        <time>2021-07-13T09:03:33Z</time>
      </trkpt>
      <trkpt lat="44.85673" lon="4.67583">
        <ele>697.57</ele>
        <time>2021-07-13T09:03:46Z</time>
      </trkpt>
      <trkpt lat="44.8567" lon="4.67581">
        <ele>698.05</ele>
        <time>2021-07-13T09:03:48Z</time>
      </trkpt>
      <trkpt lat="44.85663" lon="4.67582">
        <ele>698.05</ele>
        <time>2021-07-13T09:03:54Z</time>
      </trkpt>
      <trkpt lat="44.85639" lon="4.67585">
        <ele>696.61</ele>
        <time>2021-07-13T09:04:09Z</time>
      </trkpt>
      <trkpt lat="44.8563" lon="4.67585">
        <ele>695.65</ele>
        <time>2021-07-13T09:04:14Z</time>
      </trkpt>
      <trkpt lat="44.85618" lon="4.6758">
        <ele>695.17</ele>
        <time>2021-07-13T09:04:23Z</time>
      </trkpt>
      <trkpt lat="44.85592" lon="4.67578">
        <ele>692.29</ele>
        <time>2021-07-13T09:04:39Z</time>
      </trkpt>
      <trkpt lat="44.85585" lon="4.67579">
        <ele>691.33</ele>
        <time>2021-07-13T09:04:44Z</time>
      </trkpt>
      <trkpt lat="44.85555" lon="4.67572">
        <ele>687.48</ele>
        <time>2021-07-13T09:05:00Z</time>
      </trkpt>
      <trkpt lat="44.85535" lon="4.6757">
        <ele>687</ele>
        <time>2021-07-13T09:05:15Z</time>
      </trkpt>
      <trkpt lat="44.85518" lon="4.67573">
        <ele>690.36</ele>
        <time>2021-07-13T09:05:29Z</time>
      </trkpt>
      <trkpt lat="44.85509" lon="4.67575">
        <ele>690.36</ele>
        <time>2021-07-13T09:05:36Z</time>
      </trkpt>
      <trkpt lat="44.85501" lon="4.67574">
        <ele>690.84</ele>
        <time>2021-07-13T09:05:41Z</time>
      </trkpt>
      <trkpt lat="44.85468" lon="4.67573">
        <ele>682.67</ele>
        <time>2021-07-13T09:05:57Z</time>
      </trkpt>
      <trkpt lat="44.85452" lon="4.67562">
        <ele>680.75</ele>
        <time>2021-07-13T09:06:09Z</time>
      </trkpt>
      <trkpt lat="44.85423" lon="4.6755">
        <ele>678.35</ele>
        <time>2021-07-13T09:06:28Z</time>
      </trkpt>
      <trkpt lat="44.85397" lon="4.67549">
        <ele>671.14</ele>
        <time>2021-07-13T09:06:44Z</time>
      </trkpt>
      <trkpt lat="44.85364" lon="4.6755">
        <ele>666.81</ele>
        <time>2021-07-13T09:07:04Z</time>
      </trkpt>
      <trkpt lat="44.85329" lon="4.67542">
        <ele>657.68</ele>
        <time>2021-07-13T09:07:23Z</time>
      </trkpt>
      <trkpt lat="44.85297" lon="4.67524">
        <ele>654.31</ele>
        <time>2021-07-13T09:07:45Z</time>
      </trkpt>
      <trkpt lat="44.85268" lon="4.67498">
        <ele>650.47</ele>
        <time>2021-07-13T09:08:06Z</time>
      </trkpt>
      <trkpt lat="44.85241" lon="4.67475">
        <ele>648.07</ele>
        <time>2021-07-13T09:08:25Z</time>
      </trkpt>
      <trkpt lat="44.85217" lon="4.67451">
        <ele>646.14</ele>
        <time>2021-07-13T09:08:44Z</time>
      </trkpt>
      <trkpt lat="44.85194" lon="4.67419">
        <ele>645.18</ele>
        <time>2021-07-13T09:09:05Z</time>
      </trkpt>
      <trkpt lat="44.85179" lon="4.67392">
        <ele>645.18</ele>
        <time>2021-07-13T09:09:22Z</time>
      </trkpt>
      <trkpt lat="44.8516" lon="4.67363">
        <ele>643.26</ele>
        <time>2021-07-13T09:09:41Z</time>
      </trkpt>
      <trkpt lat="44.85142" lon="4.67342">
        <ele>643.26</ele>
        <time>2021-07-13T09:09:58Z</time>
      </trkpt>
      <trkpt lat="44.85126" lon="4.67322">
        <ele>643.74</ele>
        <time>2021-07-13T09:10:15Z</time>
      </trkpt>
      <trkpt lat="44.85125" lon="4.67321">
        <ele>643.74</ele>
        <time>2021-07-13T09:10:16Z</time>
      </trkpt>
      <trkpt lat="44.85106" lon="4.67302">
        <ele>646.62</ele>
        <time>2021-07-13T09:10:33Z</time>
      </trkpt>
      <trkpt lat="44.85088" lon="4.67287">
        <ele>648.55</ele>
        <time>2021-07-13T09:10:48Z</time>
      </trkpt>
      <trkpt lat="44.85081" lon="4.67266">
        <ele>650.95</ele>
        <time>2021-07-13T09:11:03Z</time>
      </trkpt>
      <trkpt lat="44.85078" lon="4.67242">
        <ele>657.68</ele>
        <time>2021-07-13T09:11:20Z</time>
      </trkpt>
      <trkpt lat="44.8507" lon="4.67222">
        <ele>656.24</ele>
        <time>2021-07-13T09:11:32Z</time>
      </trkpt>
      <trkpt lat="44.85062" lon="4.67208">
        <ele>655.76</ele>
        <time>2021-07-13T09:11:42Z</time>
      </trkpt>
      <trkpt lat="44.85057" lon="4.67196">
        <ele>658.16</ele>
        <time>2021-07-13T09:11:53Z</time>
      </trkpt>
      <trkpt lat="44.85053" lon="4.67177">
        <ele>668.73</ele>
        <time>2021-07-13T09:12:07Z</time>
      </trkpt>
      <trkpt lat="44.85051" lon="4.67162">
        <ele>671.62</ele>
        <time>2021-07-13T09:12:17Z</time>
      </trkpt>
      <trkpt lat="44.8505" lon="4.6713">
        <ele>674.5</ele>
        <time>2021-07-13T09:12:35Z</time>
      </trkpt>
      <trkpt lat="44.85044" lon="4.67102">
        <ele>677.39</ele>
        <time>2021-07-13T09:12:51Z</time>
      </trkpt>
      <trkpt lat="44.85042" lon="4.67091">
        <ele>678.35</ele>
        <time>2021-07-13T09:12:58Z</time>
      </trkpt>
      <trkpt lat="44.85041" lon="4.67089">
        <ele>678.35</ele>
        <time>2021-07-13T09:13:01Z</time>
      </trkpt>
      <trkpt lat="44.85039" lon="4.67081">
        <ele>677.87</ele>
        <time>2021-07-13T09:13:05Z</time>
      </trkpt>
      <trkpt lat="44.85038" lon="4.67067">
        <ele>674.98</ele>
        <time>2021-07-13T09:13:14Z</time>
      </trkpt>
      <trkpt lat="44.85036" lon="4.67059">
        <ele>675.46</ele>
        <time>2021-07-13T09:13:18Z</time>
      </trkpt>
      <trkpt lat="44.85031" lon="4.6704">
        <ele>674.02</ele>
        <time>2021-07-13T09:13:26Z</time>
      </trkpt>
      <trkpt lat="44.85005" lon="4.67009">
        <ele>666.33</ele>
        <time>2021-07-13T09:13:42Z</time>
      </trkpt>
      <trkpt lat="44.84996" lon="4.66986">
        <ele>662.97</ele>
        <time>2021-07-13T09:13:55Z</time>
      </trkpt>
      <trkpt lat="44.84986" lon="4.66958">
        <ele>658.16</ele>
        <time>2021-07-13T09:14:08Z</time>
      </trkpt>
      <trkpt lat="44.84969" lon="4.66948">
        <ele>654.8</ele>
        <time>2021-07-13T09:14:15Z</time>
      </trkpt>
      <trkpt lat="44.84952" lon="4.66938">
        <ele>649.51</ele>
        <time>2021-07-13T09:14:25Z</time>
      </trkpt>
      <trkpt lat="44.84931" lon="4.66921">
        <ele>642.3</ele>
        <time>2021-07-13T09:14:38Z</time>
      </trkpt>
      <trkpt lat="44.84927" lon="4.66906">
        <ele>640.38</ele>
        <time>2021-07-13T09:14:45Z</time>
      </trkpt>
      <trkpt lat="44.84901" lon="4.66884">
        <ele>636.05</ele>
        <time>2021-07-13T09:14:59Z</time>
      </trkpt>
      <trkpt lat="44.84879" lon="4.66864">
        <ele>638.45</ele>
        <time>2021-07-13T09:15:15Z</time>
      </trkpt>
      <trkpt lat="44.84874" lon="4.66857">
        <ele>640.86</ele>
        <time>2021-07-13T09:15:20Z</time>
      </trkpt>
      <trkpt lat="44.84867" lon="4.66841">
        <ele>649.51</ele>
        <time>2021-07-13T09:15:30Z</time>
      </trkpt>
      <trkpt lat="44.8484" lon="4.66827">
        <ele>654.8</ele>
        <time>2021-07-13T09:15:44Z</time>
      </trkpt>
      <trkpt lat="44.84827" lon="4.66816">
        <ele>669.7</ele>
        <time>2021-07-13T09:15:56Z</time>
      </trkpt>
      <trkpt lat="44.84827" lon="4.66804">
        <ele>671.14</ele>
        <time>2021-07-13T09:16:11Z</time>
      </trkpt>
      <trkpt lat="44.84826" lon="4.66803">
        <ele>664.41</ele>
        <time>2021-07-13T09:16:25Z</time>
      </trkpt>
      <trkpt lat="44.84817" lon="4.66812">
        <ele>654.8</ele>
        <time>2021-07-13T09:16:42Z</time>
      </trkpt>
      <trkpt lat="44.84806" lon="4.66821">
        <ele>646.14</ele>
        <time>2021-07-13T09:17:01Z</time>
      </trkpt>
      <trkpt lat="44.84804" lon="4.66828">
        <ele>642.3</ele>
        <time>2021-07-13T09:17:22Z</time>
      </trkpt>
      <trkpt lat="44.84798" lon="4.66816">
        <ele>640.38</ele>
        <time>2021-07-13T09:17:29Z</time>
      </trkpt>
      <trkpt lat="44.84778" lon="4.66794">
        <ele>648.07</ele>
        <time>2021-07-13T09:17:46Z</time>
      </trkpt>
      <trkpt lat="44.84772" lon="4.66789">
        <ele>650.95</ele>
        <time>2021-07-13T09:17:50Z</time>
      </trkpt>
      <trkpt lat="44.84768" lon="4.66779">
        <ele>656.72</ele>
        <time>2021-07-13T09:17:56Z</time>
      </trkpt>
      <trkpt lat="44.84756" lon="4.66752">
        <ele>662.01</ele>
        <time>2021-07-13T09:18:11Z</time>
      </trkpt>
      <trkpt lat="44.84746" lon="4.66712">
        <ele>641.82</ele>
        <time>2021-07-13T09:18:29Z</time>
      </trkpt>
      <trkpt lat="44.84732" lon="4.66674">
        <ele>627.4</ele>
        <time>2021-07-13T09:18:46Z</time>
      </trkpt>
      <trkpt lat="44.84722" lon="4.66633">
        <ele>610.57</ele>
        <time>2021-07-13T09:19:03Z</time>
      </trkpt>
      <trkpt lat="44.84728" lon="4.66601">
        <ele>605.77</ele>
        <time>2021-07-13T09:19:20Z</time>
      </trkpt>
      <trkpt lat="44.84751" lon="4.66592">
        <ele>602.4</ele>
        <time>2021-07-13T09:19:36Z</time>
      </trkpt>
      <trkpt lat="44.84766" lon="4.66593">
        <ele>598.08</ele>
        <time>2021-07-13T09:19:46Z</time>
      </trkpt>
      <trkpt lat="44.84771" lon="4.66591">
        <ele>597.12</ele>
        <time>2021-07-13T09:19:49Z</time>
      </trkpt>
      <trkpt lat="44.84774" lon="4.66585">
        <ele>596.15</ele>
        <time>2021-07-13T09:19:53Z</time>
      </trkpt>
      <trkpt lat="44.8477" lon="4.6655">
        <ele>589.43</ele>
        <time>2021-07-13T09:20:14Z</time>
      </trkpt>
      <trkpt lat="44.84763" lon="4.66505">
        <ele>586.54</ele>
        <time>2021-07-13T09:20:35Z</time>
      </trkpt>
      <trkpt lat="44.84743" lon="4.66483">
        <ele>588.46</ele>
        <time>2021-07-13T09:20:54Z</time>
      </trkpt>
      <trkpt lat="44.84718" lon="4.66462">
        <ele>591.35</ele>
        <time>2021-07-13T09:21:16Z</time>
      </trkpt>
      <trkpt lat="44.84699" lon="4.66446">
        <ele>588.95</ele>
        <time>2021-07-13T09:21:32Z</time>
      </trkpt>
      <trkpt lat="44.84677" lon="4.66424">
        <ele>586.54</ele>
        <time>2021-07-13T09:21:51Z</time>
      </trkpt>
      <trkpt lat="44.84661" lon="4.66414">
        <ele>587.5</ele>
        <time>2021-07-13T09:22:05Z</time>
      </trkpt>
      <trkpt lat="44.84638" lon="4.66399">
        <ele>592.79</ele>
        <time>2021-07-13T09:22:23Z</time>
      </trkpt>
      <trkpt lat="44.84637" lon="4.66398">
        <ele>593.27</ele>
        <time>2021-07-13T09:22:25Z</time>
      </trkpt>
      <trkpt lat="44.84624" lon="4.66392">
        <ele>594.23</ele>
        <time>2021-07-13T09:22:34Z</time>
      </trkpt>
      <trkpt lat="44.84604" lon="4.66388">
        <ele>593.27</ele>
        <time>2021-07-13T09:22:49Z</time>
      </trkpt>
      <trkpt lat="44.84589" lon="4.66376">
        <ele>592.31</ele>
        <time>2021-07-13T09:23:02Z</time>
      </trkpt>
      <trkpt lat="44.84574" lon="4.66354">
        <ele>592.31</ele>
        <time>2021-07-13T09:23:17Z</time>
      </trkpt>
      <trkpt lat="44.84572" lon="4.6635">
        <ele>592.31</ele>
        <time>2021-07-13T09:23:19Z</time>
      </trkpt>
      <trkpt lat="44.84565" lon="4.66343">
        <ele>593.27</ele>
        <time>2021-07-13T09:23:24Z</time>
      </trkpt>
      <trkpt lat="44.84544" lon="4.66339">
        <ele>596.64</ele>
        <time>2021-07-13T09:23:39Z</time>
      </trkpt>
      <trkpt lat="44.84521" lon="4.66333">
        <ele>606.25</ele>
        <time>2021-07-13T09:23:54Z</time>
      </trkpt>
      <trkpt lat="44.84494" lon="4.66316">
        <ele>612.98</ele>
        <time>2021-07-13T09:24:12Z</time>
      </trkpt>
      <trkpt lat="44.84482" lon="4.66292">
        <ele>602.4</ele>
        <time>2021-07-13T09:24:27Z</time>
      </trkpt>
      <trkpt lat="44.84482" lon="4.66286">
        <ele>599.04</ele>
        <time>2021-07-13T09:24:30Z</time>
      </trkpt>
      <trkpt lat="44.84475" lon="4.66241">
        <ele>587.02</ele>
        <time>2021-07-13T09:24:49Z</time>
      </trkpt>
      <trkpt lat="44.84466" lon="4.66225">
        <ele>585.1</ele>
        <time>2021-07-13T09:24:58Z</time>
      </trkpt>
      <trkpt lat="44.84458" lon="4.66214">
        <ele>583.66</ele>
        <time>2021-07-13T09:25:11Z</time>
      </trkpt>
      <trkpt lat="44.84455" lon="4.6621">
        <ele>581.73</ele>
        <time>2021-07-13T09:25:19Z</time>
      </trkpt>
      <trkpt lat="44.84449" lon="4.66204">
        <ele>580.29</ele>
        <time>2021-07-13T09:25:29Z</time>
      </trkpt>
      <trkpt lat="44.84431" lon="4.66192">
        <ele>582.7</ele>
        <time>2021-07-13T09:25:44Z</time>
      </trkpt>
      <trkpt lat="44.84414" lon="4.66171">
        <ele>579.33</ele>
        <time>2021-07-13T09:25:59Z</time>
      </trkpt>
      <trkpt lat="44.84397" lon="4.66158">
        <ele>576.93</ele>
        <time>2021-07-13T09:26:13Z</time>
      </trkpt>
      <trkpt lat="44.84379" lon="4.66152">
        <ele>576.45</ele>
        <time>2021-07-13T09:26:28Z</time>
      </trkpt>
      <trkpt lat="44.84378" lon="4.66151">
        <ele>575.97</ele>
        <time>2021-07-13T09:26:29Z</time>
      </trkpt>
      <trkpt lat="44.84359" lon="4.66149">
        <ele>575.01</ele>
        <time>2021-07-13T09:26:42Z</time>
      </trkpt>
      <trkpt lat="44.84331" lon="4.66138">
        <ele>575.97</ele>
        <time>2021-07-13T09:27:02Z</time>
      </trkpt>
      <trkpt lat="44.8431" lon="4.66126">
        <ele>575.49</ele>
        <time>2021-07-13T09:27:18Z</time>
      </trkpt>
      <trkpt lat="44.84306" lon="4.66125">
        <ele>575.97</ele>
        <time>2021-07-13T09:27:23Z</time>
      </trkpt>
      <trkpt lat="44.84286" lon="4.6611">
        <ele>577.89</ele>
        <time>2021-07-13T09:27:40Z</time>
      </trkpt>
      <trkpt lat="44.84282" lon="4.66105">
        <ele>576.93</ele>
        <time>2021-07-13T09:27:52Z</time>
      </trkpt>
      <trkpt lat="44.8428" lon="4.66102">
        <ele>576.45</ele>
        <time>2021-07-13T09:27:57Z</time>
      </trkpt>
      <trkpt lat="44.84277" lon="4.66097">
        <ele>577.89</ele>
        <time>2021-07-13T09:28:05Z</time>
      </trkpt>
      <trkpt lat="44.84274" lon="4.66087">
        <ele>577.89</ele>
        <time>2021-07-13T09:28:11Z</time>
      </trkpt>
      <trkpt lat="44.84269" lon="4.66075">
        <ele>578.85</ele>
        <time>2021-07-13T09:28:24Z</time>
      </trkpt>
      <trkpt lat="44.84255" lon="4.66053">
        <ele>579.81</ele>
        <time>2021-07-13T09:28:40Z</time>
      </trkpt>
      <trkpt lat="44.84253" lon="4.66051">
        <ele>579.81</ele>
        <time>2021-07-13T09:28:42Z</time>
      </trkpt>
      <trkpt lat="44.84247" lon="4.66032">
        <ele>579.33</ele>
        <time>2021-07-13T09:28:54Z</time>
      </trkpt>
      <trkpt lat="44.84236" lon="4.66004">
        <ele>581.73</ele>
        <time>2021-07-13T09:29:10Z</time>
      </trkpt>
      <trkpt lat="44.84233" lon="4.65993">
        <ele>580.77</ele>
        <time>2021-07-13T09:29:16Z</time>
      </trkpt>
      <trkpt lat="44.8423" lon="4.65983">
        <ele>581.25</ele>
        <time>2021-07-13T09:29:22Z</time>
      </trkpt>
      <trkpt lat="44.84226" lon="4.65969">
        <ele>582.22</ele>
        <time>2021-07-13T09:29:30Z</time>
      </trkpt>
      <trkpt lat="44.84213" lon="4.65945">
        <ele>585.1</ele>
        <time>2021-07-13T09:29:45Z</time>
      </trkpt>
      <trkpt lat="44.84193" lon="4.65924">
        <ele>588.95</ele>
        <time>2021-07-13T09:30:02Z</time>
      </trkpt>
      <trkpt lat="44.84181" lon="4.6592">
        <ele>589.43</ele>
        <time>2021-07-13T09:30:13Z</time>
      </trkpt>
      <trkpt lat="44.84176" lon="4.65919">
        <ele>590.87</ele>
        <time>2021-07-13T09:30:19Z</time>
      </trkpt>
      <trkpt lat="44.84171" lon="4.65919">
        <ele>588.95</ele>
        <time>2021-07-13T09:30:23Z</time>
      </trkpt>
      <trkpt lat="44.84147" lon="4.65914">
        <ele>583.18</ele>
        <time>2021-07-13T09:30:38Z</time>
      </trkpt>
      <trkpt lat="44.84128" lon="4.6591">
        <ele>580.29</ele>
        <time>2021-07-13T09:30:52Z</time>
      </trkpt>
      <trkpt lat="44.84111" lon="4.65915">
        <ele>582.7</ele>
        <time>2021-07-13T09:31:06Z</time>
      </trkpt>
      <trkpt lat="44.84097" lon="4.65914">
        <ele>588.46</ele>
        <time>2021-07-13T09:31:22Z</time>
      </trkpt>
      <trkpt lat="44.84072" lon="4.65914">
        <ele>600</ele>
        <time>2021-07-13T09:31:40Z</time>
      </trkpt>
      <trkpt lat="44.84056" lon="4.65911">
        <ele>601.44</ele>
        <time>2021-07-13T09:31:55Z</time>
      </trkpt>
      <trkpt lat="44.84054" lon="4.65909">
        <ele>599.52</ele>
        <time>2021-07-13T09:32:04Z</time>
      </trkpt>
      <trkpt lat="44.84029" lon="4.65904">
        <ele>595.19</ele>
        <time>2021-07-13T09:32:20Z</time>
      </trkpt>
      <trkpt lat="44.84002" lon="4.65888">
        <ele>572.6</ele>
        <time>2021-07-13T09:32:37Z</time>
      </trkpt>
      <trkpt lat="44.83987" lon="4.65856">
        <ele>566.35</ele>
        <time>2021-07-13T09:32:55Z</time>
      </trkpt>
      <trkpt lat="44.83986" lon="4.65853">
        <ele>565.39</ele>
        <time>2021-07-13T09:32:57Z</time>
      </trkpt>
      <trkpt lat="44.83974" lon="4.65821">
        <ele>564.43</ele>
        <time>2021-07-13T09:33:14Z</time>
      </trkpt>
      <trkpt lat="44.83969" lon="4.65815">
        <ele>563.95</ele>
        <time>2021-07-13T09:33:19Z</time>
      </trkpt>
      <trkpt lat="44.83946" lon="4.65797">
        <ele>564.91</ele>
        <time>2021-07-13T09:33:37Z</time>
      </trkpt>
      <trkpt lat="44.83923" lon="4.65774">
        <ele>563.95</ele>
        <time>2021-07-13T09:33:56Z</time>
      </trkpt>
      <trkpt lat="44.839" lon="4.65759">
        <ele>562.03</ele>
        <time>2021-07-13T09:34:13Z</time>
      </trkpt>
      <trkpt lat="44.83896" lon="4.65757">
        <ele>561.55</ele>
        <time>2021-07-13T09:34:17Z</time>
      </trkpt>
      <trkpt lat="44.83887" lon="4.65751">
        <ele>561.55</ele>
        <time>2021-07-13T09:34:27Z</time>
      </trkpt>
      <trkpt lat="44.8388" lon="4.65743">
        <ele>562.99</ele>
        <time>2021-07-13T09:34:34Z</time>
      </trkpt>
      <trkpt lat="44.83862" lon="4.65728">
        <ele>562.99</ele>
        <time>2021-07-13T09:34:48Z</time>
      </trkpt>
      <trkpt lat="44.83854" lon="4.65716">
        <ele>562.51</ele>
        <time>2021-07-13T09:34:56Z</time>
      </trkpt>
      <trkpt lat="44.83847" lon="4.65711">
        <ele>562.99</ele>
        <time>2021-07-13T09:35:03Z</time>
      </trkpt>
      <trkpt lat="44.83835" lon="4.65695">
        <ele>564.43</ele>
        <time>2021-07-13T09:35:18Z</time>
      </trkpt>
      <trkpt lat="44.83833" lon="4.65691">
        <ele>564.91</ele>
        <time>2021-07-13T09:35:21Z</time>
      </trkpt>
      <trkpt lat="44.83824" lon="4.65664">
        <ele>564.91</ele>
        <time>2021-07-13T09:35:35Z</time>
      </trkpt>
      <trkpt lat="44.83823" lon="4.65641">
        <ele>565.39</ele>
        <time>2021-07-13T09:35:49Z</time>
      </trkpt>
      <trkpt lat="44.8382" lon="4.65634">
        <ele>563.47</ele>
        <time>2021-07-13T09:36:03Z</time>
      </trkpt>
      <trkpt lat="44.8382" lon="4.65633">
        <ele>560.59</ele>
        <time>2021-07-13T09:36:31Z</time>
      </trkpt>
      <trkpt lat="44.83819" lon="4.65629">
        <ele>558.18</ele>
        <time>2021-07-13T09:36:52Z</time>
      </trkpt>
      <trkpt lat="44.83818" lon="4.6563">
        <ele>558.18</ele>
        <time>2021-07-13T09:36:54Z</time>
      </trkpt>
      <trkpt lat="44.83816" lon="4.65636">
        <ele>558.18</ele>
        <time>2021-07-13T09:37:02Z</time>
      </trkpt>
      <trkpt lat="44.83814" lon="4.65645">
        <ele>560.59</ele>
        <time>2021-07-13T09:37:09Z</time>
      </trkpt>
      <trkpt lat="44.8381" lon="4.65654">
        <ele>561.07</ele>
        <time>2021-07-13T09:37:18Z</time>
      </trkpt>
      <trkpt lat="44.83801" lon="4.65663">
        <ele>561.55</ele>
        <time>2021-07-13T09:37:27Z</time>
      </trkpt>
      <trkpt lat="44.83796" lon="4.65682">
        <ele>559.14</ele>
        <time>2021-07-13T09:37:40Z</time>
      </trkpt>
      <trkpt lat="44.83778" lon="4.65698">
        <ele>558.66</ele>
        <time>2021-07-13T09:37:55Z</time>
      </trkpt>
      <trkpt lat="44.83777" lon="4.65699">
        <ele>558.66</ele>
        <time>2021-07-13T09:37:56Z</time>
      </trkpt>
      <trkpt lat="44.8377" lon="4.6571">
        <ele>557.7</ele>
        <time>2021-07-13T09:38:04Z</time>
      </trkpt>
      <trkpt lat="44.83768" lon="4.65712">
        <ele>557.7</ele>
        <time>2021-07-13T09:38:07Z</time>
      </trkpt>
      <trkpt lat="44.83767" lon="4.65715">
        <ele>557.7</ele>
        <time>2021-07-13T09:38:09Z</time>
      </trkpt>
      <trkpt lat="44.83762" lon="4.65729">
        <ele>557.22</ele>
        <time>2021-07-13T09:38:17Z</time>
      </trkpt>
      <trkpt lat="44.83758" lon="4.65736">
        <ele>555.3</ele>
        <time>2021-07-13T09:38:21Z</time>
      </trkpt>
      <trkpt lat="44.83753" lon="4.65746">
        <ele>554.34</ele>
        <time>2021-07-13T09:38:28Z</time>
      </trkpt>
      <trkpt lat="44.83741" lon="4.6576">
        <ele>553.86</ele>
        <time>2021-07-13T09:38:39Z</time>
      </trkpt>
      <trkpt lat="44.83724" lon="4.65773">
        <ele>551.93</ele>
        <time>2021-07-13T09:38:52Z</time>
      </trkpt>
      <trkpt lat="44.83724" lon="4.65787">
        <ele>550.97</ele>
        <time>2021-07-13T09:38:58Z</time>
      </trkpt>
      <trkpt lat="44.83722" lon="4.65796">
        <ele>549.53</ele>
        <time>2021-07-13T09:39:02Z</time>
      </trkpt>
      <trkpt lat="44.83714" lon="4.65797">
        <ele>549.05</ele>
        <time>2021-07-13T09:39:06Z</time>
      </trkpt>
      <trkpt lat="44.83708" lon="4.65797">
        <ele>549.05</ele>
        <time>2021-07-13T09:39:10Z</time>
      </trkpt>
      <trkpt lat="44.83711" lon="4.6583">
        <ele>543.28</ele>
        <time>2021-07-13T09:39:22Z</time>
      </trkpt>
      <trkpt lat="44.83703" lon="4.65834">
        <ele>540.4</ele>
        <time>2021-07-13T09:39:29Z</time>
      </trkpt>
      <trkpt lat="44.83697" lon="4.65836">
        <ele>539.44</ele>
        <time>2021-07-13T09:39:35Z</time>
      </trkpt>
      <trkpt lat="44.8369" lon="4.65837">
        <ele>538.48</ele>
        <time>2021-07-13T09:39:41Z</time>
      </trkpt>
      <trkpt lat="44.83686" lon="4.65843">
        <ele>533.67</ele>
        <time>2021-07-13T09:39:46Z</time>
      </trkpt>
      <trkpt lat="44.83678" lon="4.65853">
        <ele>528.86</ele>
        <time>2021-07-13T09:39:59Z</time>
      </trkpt>
      <trkpt lat="44.83677" lon="4.65853">
        <ele>527.42</ele>
        <time>2021-07-13T09:40:01Z</time>
      </trkpt>
      <trkpt lat="44.83678" lon="4.65846">
        <ele>525.98</ele>
        <time>2021-07-13T09:40:08Z</time>
      </trkpt>
      <trkpt lat="44.83671" lon="4.65835">
        <ele>525.5</ele>
        <time>2021-07-13T09:40:19Z</time>
      </trkpt>
      <trkpt lat="44.83669" lon="4.65823">
        <ele>521.65</ele>
        <time>2021-07-13T09:40:34Z</time>
      </trkpt>
      <trkpt lat="44.8367" lon="4.65821">
        <ele>519.25</ele>
        <time>2021-07-13T09:40:52Z</time>
      </trkpt>
      <trkpt lat="44.83668" lon="4.65815">
        <ele>519.25</ele>
        <time>2021-07-13T09:41:05Z</time>
      </trkpt>
      <trkpt lat="44.83662" lon="4.65809">
        <ele>516.37</ele>
        <time>2021-07-13T09:41:15Z</time>
      </trkpt>
      <trkpt lat="44.83645" lon="4.65814">
        <ele>511.08</ele>
        <time>2021-07-13T09:41:33Z</time>
      </trkpt>
      <trkpt lat="44.83628" lon="4.65821">
        <ele>507.71</ele>
        <time>2021-07-13T09:41:49Z</time>
      </trkpt>
      <trkpt lat="44.83618" lon="4.65828">
        <ele>505.31</ele>
        <time>2021-07-13T09:42:03Z</time>
      </trkpt>
      <trkpt lat="44.83614" lon="4.6583">
        <ele>502.91</ele>
        <time>2021-07-13T09:42:19Z</time>
      </trkpt>
      <trkpt lat="44.8361" lon="4.65831">
        <ele>503.39</ele>
        <time>2021-07-13T09:42:30Z</time>
      </trkpt>
      <trkpt lat="44.83602" lon="4.65832">
        <ele>502.43</ele>
        <time>2021-07-13T09:42:43Z</time>
      </trkpt>
      <trkpt lat="44.83585" lon="4.6583">
        <ele>497.62</ele>
        <time>2021-07-13T09:43:01Z</time>
      </trkpt>
      <trkpt lat="44.83571" lon="4.6583">
        <ele>493.29</ele>
        <time>2021-07-13T09:43:14Z</time>
      </trkpt>
      <trkpt lat="44.83556" lon="4.65831">
        <ele>492.33</ele>
        <time>2021-07-13T09:43:27Z</time>
      </trkpt>
      <trkpt lat="44.83537" lon="4.6582">
        <ele>490.89</ele>
        <time>2021-07-13T09:43:43Z</time>
      </trkpt>
      <trkpt lat="44.83535" lon="4.65819">
        <ele>489.93</ele>
        <time>2021-07-13T09:43:45Z</time>
      </trkpt>
      <trkpt lat="44.83519" lon="4.65806">
        <ele>484.64</ele>
        <time>2021-07-13T09:44:00Z</time>
      </trkpt>
      <trkpt lat="44.83503" lon="4.65788">
        <ele>479.35</ele>
        <time>2021-07-13T09:44:16Z</time>
      </trkpt>
      <trkpt lat="44.8349" lon="4.6577">
        <ele>476.47</ele>
        <time>2021-07-13T09:44:32Z</time>
      </trkpt>
      <trkpt lat="44.83482" lon="4.65759">
        <ele>473.11</ele>
        <time>2021-07-13T09:44:44Z</time>
      </trkpt>
      <trkpt lat="44.83474" lon="4.6576">
        <ele>472.14</ele>
        <time>2021-07-13T09:44:52Z</time>
      </trkpt>
      <trkpt lat="44.83462" lon="4.65768">
        <ele>468.78</ele>
        <time>2021-07-13T09:45:01Z</time>
      </trkpt>
      <trkpt lat="44.83447" lon="4.65765">
        <ele>467.34</ele>
        <time>2021-07-13T09:45:16Z</time>
      </trkpt>
      <trkpt lat="44.83438" lon="4.65768">
        <ele>467.82</ele>
        <time>2021-07-13T09:45:28Z</time>
      </trkpt>
      <trkpt lat="44.83434" lon="4.65769">
        <ele>466.86</ele>
        <time>2021-07-13T09:45:32Z</time>
      </trkpt>
      <trkpt lat="44.8343" lon="4.65769">
        <ele>467.34</ele>
        <time>2021-07-13T09:45:35Z</time>
      </trkpt>
      <trkpt lat="44.83427" lon="4.65767">
        <ele>467.82</ele>
        <time>2021-07-13T09:45:38Z</time>
      </trkpt>
      <trkpt lat="44.83421" lon="4.65754">
        <ele>465.42</ele>
        <time>2021-07-13T09:45:47Z</time>
      </trkpt>
      <trkpt lat="44.83418" lon="4.6575">
        <ele>464.93</ele>
        <time>2021-07-13T09:45:53Z</time>
      </trkpt>
      <trkpt lat="44.83405" lon="4.65755">
        <ele>466.38</ele>
        <time>2021-07-13T09:46:08Z</time>
      </trkpt>
      <trkpt lat="44.83396" lon="4.65761">
        <ele>473.59</ele>
        <time>2021-07-13T09:46:20Z</time>
      </trkpt>
      <trkpt lat="44.83392" lon="4.65764">
        <ele>476.47</ele>
        <time>2021-07-13T09:46:24Z</time>
      </trkpt>
      <trkpt lat="44.83385" lon="4.65774">
        <ele>481.76</ele>
        <time>2021-07-13T09:46:34Z</time>
      </trkpt>
      <trkpt lat="44.83377" lon="4.65779">
        <ele>485.12</ele>
        <time>2021-07-13T09:46:41Z</time>
      </trkpt>
      <trkpt lat="44.83368" lon="4.65788">
        <ele>484.64</ele>
        <time>2021-07-13T09:46:55Z</time>
      </trkpt>
      <trkpt lat="44.83355" lon="4.65789">
        <ele>478.87</ele>
        <time>2021-07-13T09:47:03Z</time>
      </trkpt>
      <trkpt lat="44.83344" lon="4.65783">
        <ele>484.16</ele>
        <time>2021-07-13T09:47:17Z</time>
      </trkpt>
      <trkpt lat="44.83338" lon="4.6578">
        <ele>477.43</ele>
        <time>2021-07-13T09:47:29Z</time>
      </trkpt>
      <trkpt lat="44.83339" lon="4.65777">
        <ele>472.14</ele>
        <time>2021-07-13T09:47:36Z</time>
      </trkpt>
      <trkpt lat="44.83339" lon="4.65762">
        <ele>461.57</ele>
        <time>2021-07-13T09:47:50Z</time>
      </trkpt>
      <trkpt lat="44.83339" lon="4.65761">
        <ele>460.13</ele>
        <time>2021-07-13T09:47:54Z</time>
      </trkpt>
      <trkpt lat="44.83337" lon="4.65758">
        <ele>457.24</ele>
        <time>2021-07-13T09:48:03Z</time>
      </trkpt>
      <trkpt lat="44.83334" lon="4.6575">
        <ele>443.79</ele>
        <time>2021-07-13T09:48:16Z</time>
      </trkpt>
      <trkpt lat="44.83326" lon="4.65762">
        <ele>439.46</ele>
        <time>2021-07-13T09:48:28Z</time>
      </trkpt>
      <trkpt lat="44.83316" lon="4.65776">
        <ele>440.9</ele>
        <time>2021-07-13T09:48:43Z</time>
      </trkpt>
      <trkpt lat="44.83308" lon="4.65791">
        <ele>446.19</ele>
        <time>2021-07-13T09:48:55Z</time>
      </trkpt>
      <trkpt lat="44.83294" lon="4.65806">
        <ele>450.52</ele>
        <time>2021-07-13T09:49:09Z</time>
      </trkpt>
      <trkpt lat="44.83284" lon="4.65829">
        <ele>453.4</ele>
        <time>2021-07-13T09:49:24Z</time>
      </trkpt>
      <trkpt lat="44.83276" lon="4.65849">
        <ele>451.48</ele>
        <time>2021-07-13T09:49:36Z</time>
      </trkpt>
      <trkpt lat="44.8327" lon="4.65852">
        <ele>449.55</ele>
        <time>2021-07-13T09:49:39Z</time>
      </trkpt>
      <trkpt lat="44.83255" lon="4.65868">
        <ele>443.79</ele>
        <time>2021-07-13T09:49:49Z</time>
      </trkpt>
      <trkpt lat="44.83239" lon="4.65888">
        <ele>443.31</ele>
        <time>2021-07-13T09:50:05Z</time>
      </trkpt>
      <trkpt lat="44.83228" lon="4.65896">
        <ele>442.34</ele>
        <time>2021-07-13T09:50:15Z</time>
      </trkpt>
      <trkpt lat="44.83218" lon="4.65917">
        <ele>446.19</ele>
        <time>2021-07-13T09:50:32Z</time>
      </trkpt>
      <trkpt lat="44.83216" lon="4.6592">
        <ele>446.19</ele>
        <time>2021-07-13T09:50:36Z</time>
      </trkpt>
      <trkpt lat="44.83207" lon="4.65925">
        <ele>444.27</ele>
        <time>2021-07-13T09:50:43Z</time>
      </trkpt>
      <trkpt lat="44.83197" lon="4.6594">
        <ele>439.46</ele>
        <time>2021-07-13T09:50:55Z</time>
      </trkpt>
      <trkpt lat="44.83184" lon="4.65947">
        <ele>435.13</ele>
        <time>2021-07-13T09:51:05Z</time>
      </trkpt>
      <trkpt lat="44.83184" lon="4.65948">
        <ele>434.65</ele>
        <time>2021-07-13T09:51:10Z</time>
      </trkpt>
      <trkpt lat="44.832" lon="4.65948">
        <ele>442.82</ele>
        <time>2021-07-13T09:51:28Z</time>
      </trkpt>
      <trkpt lat="44.83214" lon="4.6594">
        <ele>451</ele>
        <time>2021-07-13T09:51:42Z</time>
      </trkpt>
      <trkpt lat="44.83222" lon="4.65936">
        <ele>454.36</ele>
        <time>2021-07-13T09:51:49Z</time>
      </trkpt>
      <trkpt lat="44.83224" lon="4.65937">
        <ele>455.32</ele>
        <time>2021-07-13T09:51:51Z</time>
      </trkpt>
      <trkpt lat="44.83246" lon="4.6593">
        <ele>460.61</ele>
        <time>2021-07-13T09:52:08Z</time>
      </trkpt>
      <trkpt lat="44.83266" lon="4.65913">
        <ele>462.05</ele>
        <time>2021-07-13T09:52:24Z</time>
      </trkpt>
      <trkpt lat="44.83283" lon="4.65895">
        <ele>459.65</ele>
        <time>2021-07-13T09:52:39Z</time>
      </trkpt>
      <trkpt lat="44.83305" lon="4.65881">
        <ele>457.72</ele>
        <time>2021-07-13T09:52:56Z</time>
      </trkpt>
      <trkpt lat="44.8331" lon="4.65881">
        <ele>457.72</ele>
        <time>2021-07-13T09:52:59Z</time>
      </trkpt>
      <trkpt lat="44.83325" lon="4.65883">
        <ele>450.52</ele>
        <time>2021-07-13T09:53:13Z</time>
      </trkpt>
      <trkpt lat="44.8333" lon="4.65886">
        <ele>446.67</ele>
        <time>2021-07-13T09:53:17Z</time>
      </trkpt>
      <trkpt lat="44.83343" lon="4.65906">
        <ele>440.9</ele>
        <time>2021-07-13T09:53:32Z</time>
      </trkpt>
      <trkpt lat="44.83354" lon="4.65914">
        <ele>439.46</ele>
        <time>2021-07-13T09:53:44Z</time>
      </trkpt>
      <trkpt lat="44.83362" lon="4.65919">
        <ele>436.1</ele>
        <time>2021-07-13T09:53:56Z</time>
      </trkpt>
      <trkpt lat="44.83367" lon="4.65928">
        <ele>437.06</ele>
        <time>2021-07-13T09:54:03Z</time>
      </trkpt>
      <trkpt lat="44.83372" lon="4.65945">
        <ele>438.98</ele>
        <time>2021-07-13T09:54:13Z</time>
      </trkpt>
      <trkpt lat="44.83385" lon="4.65988">
        <ele>438.98</ele>
        <time>2021-07-13T09:54:22Z</time>
      </trkpt>
      <trkpt lat="44.83385" lon="4.65988">
        <ele>438.5</ele>
        <time>2021-07-13T09:54:23Z</time>
      </trkpt>
      <trkpt lat="44.83385" lon="4.65988">
        <ele>438.02</ele>
        <time>2021-07-13T09:54:24Z</time>
      </trkpt>
      <trkpt lat="44.83384" lon="4.65987">
        <ele>438.02</ele>
        <time>2021-07-13T09:54:25Z</time>
      </trkpt>
      <trkpt lat="44.83383" lon="4.65986">
        <ele>437.54</ele>
        <time>2021-07-13T09:54:26Z</time>
      </trkpt>
      <trkpt lat="44.83382" lon="4.65985">
        <ele>437.54</ele>
        <time>2021-07-13T09:54:27Z</time>
      </trkpt>
      <trkpt lat="44.8338" lon="4.65984">
        <ele>437.06</ele>
        <time>2021-07-13T09:54:28Z</time>
      </trkpt>
      <trkpt lat="44.83379" lon="4.65983">
        <ele>437.06</ele>
        <time>2021-07-13T09:54:29Z</time>
      </trkpt>
      <trkpt lat="44.83378" lon="4.65982">
        <ele>437.06</ele>
        <time>2021-07-13T09:54:30Z</time>
      </trkpt>
      <trkpt lat="44.83377" lon="4.65981">
        <ele>437.06</ele>
        <time>2021-07-13T09:54:31Z</time>
      </trkpt>
      <trkpt lat="44.83375" lon="4.6598">
        <ele>436.58</ele>
        <time>2021-07-13T09:54:32Z</time>
      </trkpt>
      <trkpt lat="44.83374" lon="4.65979">
        <ele>436.1</ele>
        <time>2021-07-13T09:54:33Z</time>
      </trkpt>
      <trkpt lat="44.83373" lon="4.65978">
        <ele>436.1</ele>
        <time>2021-07-13T09:54:34Z</time>
      </trkpt>
      <trkpt lat="44.83372" lon="4.65976">
        <ele>436.1</ele>
        <time>2021-07-13T09:54:35Z</time>
      </trkpt>
      <trkpt lat="44.83353" lon="4.65963">
        <ele>435.61</ele>
        <time>2021-07-13T09:54:51Z</time>
      </trkpt>
      <trkpt lat="44.8334" lon="4.65959">
        <ele>439.46</ele>
        <time>2021-07-13T09:55:03Z</time>
      </trkpt>
      <trkpt lat="44.83339" lon="4.65959">
        <ele>440.42</ele>
        <time>2021-07-13T09:55:04Z</time>
      </trkpt>
      <trkpt lat="44.83336" lon="4.65962">
        <ele>446.19</ele>
        <time>2021-07-13T09:55:09Z</time>
      </trkpt>
      <trkpt lat="44.83334" lon="4.65966">
        <ele>451.48</ele>
        <time>2021-07-13T09:55:13Z</time>
      </trkpt>
      <trkpt lat="44.83326" lon="4.65971">
        <ele>457.72</ele>
        <time>2021-07-13T09:55:19Z</time>
      </trkpt>
      <trkpt lat="44.83309" lon="4.65993">
        <ele>463.97</ele>
        <time>2021-07-13T09:55:33Z</time>
      </trkpt>
      <trkpt lat="44.83296" lon="4.66004">
        <ele>460.61</ele>
        <time>2021-07-13T09:55:43Z</time>
      </trkpt>
      <trkpt lat="44.83274" lon="4.66027">
        <ele>446.67</ele>
        <time>2021-07-13T09:55:58Z</time>
      </trkpt>
      <trkpt lat="44.83271" lon="4.66031">
        <ele>445.23</ele>
        <time>2021-07-13T09:56:01Z</time>
      </trkpt>
      <trkpt lat="44.83262" lon="4.66039">
        <ele>441.38</ele>
        <time>2021-07-13T09:56:08Z</time>
      </trkpt>
      <trkpt lat="44.83253" lon="4.66051">
        <ele>439.46</ele>
        <time>2021-07-13T09:56:16Z</time>
      </trkpt>
      <trkpt lat="44.83242" lon="4.66071">
        <ele>433.69</ele>
        <time>2021-07-13T09:56:28Z</time>
      </trkpt>
      <trkpt lat="44.8323" lon="4.66098">
        <ele>429.37</ele>
        <time>2021-07-13T09:56:42Z</time>
      </trkpt>
      <trkpt lat="44.83221" lon="4.66121">
        <ele>426.48</ele>
        <time>2021-07-13T09:56:53Z</time>
      </trkpt>
      <trkpt lat="44.83217" lon="4.66128">
        <ele>424.08</ele>
        <time>2021-07-13T09:56:57Z</time>
      </trkpt>
      <trkpt lat="44.83208" lon="4.66134">
        <ele>420.71</ele>
        <time>2021-07-13T09:57:03Z</time>
      </trkpt>
      <trkpt lat="44.83191" lon="4.66156">
        <ele>414.47</ele>
        <time>2021-07-13T09:57:17Z</time>
      </trkpt>
      <trkpt lat="44.83173" lon="4.66161">
        <ele>411.58</ele>
        <time>2021-07-13T09:57:29Z</time>
      </trkpt>
      <trkpt lat="44.83154" lon="4.66161">
        <ele>410.62</ele>
        <time>2021-07-13T09:57:43Z</time>
      </trkpt>
      <trkpt lat="44.83143" lon="4.66164">
        <ele>410.62</ele>
        <time>2021-07-13T09:57:51Z</time>
      </trkpt>
      <trkpt lat="44.83133" lon="4.66168">
        <ele>410.62</ele>
        <time>2021-07-13T09:57:58Z</time>
      </trkpt>
      <trkpt lat="44.83114" lon="4.66177">
        <ele>410.62</ele>
        <time>2021-07-13T09:58:12Z</time>
      </trkpt>
      <trkpt lat="44.83092" lon="4.66187">
        <ele>410.62</ele>
        <time>2021-07-13T09:58:26Z</time>
      </trkpt>
      <trkpt lat="44.83078" lon="4.66192">
        <ele>410.62</ele>
        <time>2021-07-13T09:58:36Z</time>
      </trkpt>
      <trkpt lat="44.83069" lon="4.662">
        <ele>410.62</ele>
        <time>2021-07-13T09:58:44Z</time>
      </trkpt>
      <trkpt lat="44.83066" lon="4.66203">
        <ele>410.62</ele>
        <time>2021-07-13T09:58:47Z</time>
      </trkpt>
      <trkpt lat="44.83041" lon="4.66203">
        <ele>390.43</ele>
        <time>2021-07-13T09:58:53Z</time>
      </trkpt>
      <trkpt lat="44.83013" lon="4.66202">
        <ele>337.08</ele>
        <time>2021-07-13T09:59:07Z</time>
      </trkpt>
      <trkpt lat="44.83004" lon="4.6621">
        <ele>337.56</ele>
        <time>2021-07-13T09:59:13Z</time>
      </trkpt>
      <trkpt lat="44.82988" lon="4.66231">
        <ele>340.92</ele>
        <time>2021-07-13T09:59:27Z</time>
      </trkpt>
      <trkpt lat="44.82974" lon="4.66244">
        <ele>349.1</ele>
        <time>2021-07-13T09:59:39Z</time>
      </trkpt>
      <trkpt lat="44.82957" lon="4.66238">
        <ele>349.58</ele>
        <time>2021-07-13T09:59:54Z</time>
      </trkpt>
      <trkpt lat="44.82955" lon="4.66213">
        <ele>346.21</ele>
        <time>2021-07-13T10:00:10Z</time>
      </trkpt>
      <trkpt lat="44.82958" lon="4.66202">
        <ele>351.02</ele>
        <time>2021-07-13T10:00:18Z</time>
      </trkpt>
      <trkpt lat="44.82963" lon="4.66181">
        <ele>350.54</ele>
        <time>2021-07-13T10:00:29Z</time>
      </trkpt>
      <trkpt lat="44.82963" lon="4.6617">
        <ele>349.58</ele>
        <time>2021-07-13T10:00:35Z</time>
      </trkpt>
      <trkpt lat="44.82964" lon="4.66157">
        <ele>347.17</ele>
        <time>2021-07-13T10:00:41Z</time>
      </trkpt>
      <trkpt lat="44.82962" lon="4.66126">
        <ele>344.29</ele>
        <time>2021-07-13T10:00:56Z</time>
      </trkpt>
      <trkpt lat="44.82962" lon="4.66111">
        <ele>345.25</ele>
        <time>2021-07-13T10:01:09Z</time>
      </trkpt>
      <trkpt lat="44.82963" lon="4.66095">
        <ele>323.62</ele>
        <time>2021-07-13T10:01:25Z</time>
      </trkpt>
      <trkpt lat="44.82961" lon="4.66098">
        <ele>325.06</ele>
        <time>2021-07-13T10:01:29Z</time>
      </trkpt>
      <trkpt lat="44.82952" lon="4.66103">
        <ele>328.91</ele>
        <time>2021-07-13T10:01:37Z</time>
      </trkpt>
      <trkpt lat="44.82945" lon="4.6611">
        <ele>327.47</ele>
        <time>2021-07-13T10:01:42Z</time>
      </trkpt>
      <trkpt lat="44.82943" lon="4.66113">
        <ele>326.99</ele>
        <time>2021-07-13T10:01:44Z</time>
      </trkpt>
      <trkpt lat="44.82935" lon="4.66119">
        <ele>324.58</ele>
        <time>2021-07-13T10:01:49Z</time>
      </trkpt>
      <trkpt lat="44.82929" lon="4.66124">
        <ele>323.62</ele>
        <time>2021-07-13T10:01:53Z</time>
      </trkpt>
      <trkpt lat="44.8291" lon="4.66134">
        <ele>320.26</ele>
        <time>2021-07-13T10:02:07Z</time>
      </trkpt>
      <trkpt lat="44.82909" lon="4.66136">
        <ele>319.78</ele>
        <time>2021-07-13T10:02:08Z</time>
      </trkpt>
      <trkpt lat="44.82906" lon="4.66143">
        <ele>319.3</ele>
        <time>2021-07-13T10:02:13Z</time>
      </trkpt>
      <trkpt lat="44.82897" lon="4.6615">
        <ele>316.89</ele>
        <time>2021-07-13T10:02:20Z</time>
      </trkpt>
      <trkpt lat="44.82886" lon="4.66156">
        <ele>315.93</ele>
        <time>2021-07-13T10:02:28Z</time>
      </trkpt>
      <trkpt lat="44.82882" lon="4.66155">
        <ele>314.97</ele>
        <time>2021-07-13T10:02:31Z</time>
      </trkpt>
      <trkpt lat="44.82891" lon="4.66169">
        <ele>309.2</ele>
        <time>2021-07-13T10:02:42Z</time>
      </trkpt>
      <trkpt lat="44.82896" lon="4.66166">
        <ele>309.68</ele>
        <time>2021-07-13T10:02:47Z</time>
      </trkpt>
      <trkpt lat="44.82898" lon="4.66163">
        <ele>310.16</ele>
        <time>2021-07-13T10:02:50Z</time>
      </trkpt>
      <trkpt lat="44.82901" lon="4.66159">
        <ele>310.64</ele>
        <time>2021-07-13T10:03:04Z</time>
      </trkpt>
      <trkpt lat="44.82897" lon="4.66152">
        <ele>303.91</ele>
        <time>2021-07-13T10:03:20Z</time>
      </trkpt>
      <trkpt lat="44.82898" lon="4.6615">
        <ele>299.11</ele>
        <time>2021-07-13T10:03:29Z</time>
      </trkpt>
      <trkpt lat="44.82885" lon="4.66151">
        <ele>297.18</ele>
        <time>2021-07-13T10:03:43Z</time>
      </trkpt>
      <trkpt lat="44.8287" lon="4.66153">
        <ele>299.59</ele>
        <time>2021-07-13T10:03:56Z</time>
      </trkpt>
      <trkpt lat="44.82868" lon="4.66154">
        <ele>300.07</ele>
        <time>2021-07-13T10:03:57Z</time>
      </trkpt>
      <trkpt lat="44.82866" lon="4.66155">
        <ele>300.55</ele>
        <time>2021-07-13T10:03:59Z</time>
      </trkpt>
      <trkpt lat="44.82845" lon="4.66158">
        <ele>296.22</ele>
        <time>2021-07-13T10:04:12Z</time>
      </trkpt>
      <trkpt lat="44.82833" lon="4.66162">
        <ele>293.34</ele>
        <time>2021-07-13T10:04:19Z</time>
      </trkpt>
      <trkpt lat="44.82828" lon="4.66165">
        <ele>292.86</ele>
        <time>2021-07-13T10:04:23Z</time>
      </trkpt>
      <trkpt lat="44.82815" lon="4.66175">
        <ele>292.86</ele>
        <time>2021-07-13T10:04:35Z</time>
      </trkpt>
      <trkpt lat="44.82798" lon="4.66189">
        <ele>289.97</ele>
        <time>2021-07-13T10:04:48Z</time>
      </trkpt>
      <trkpt lat="44.82782" lon="4.66196">
        <ele>286.61</ele>
        <time>2021-07-13T10:05:01Z</time>
      </trkpt>
      <trkpt lat="44.82758" lon="4.66195">
        <ele>287.09</ele>
        <time>2021-07-13T10:05:12Z</time>
      </trkpt>
      <trkpt lat="44.8274" lon="4.66197">
        <ele>282.28</ele>
        <time>2021-07-13T10:05:29Z</time>
      </trkpt>
      <trkpt lat="44.82736" lon="4.66195">
        <ele>279.88</ele>
        <time>2021-07-13T10:05:33Z</time>
      </trkpt>
      <trkpt lat="44.8272" lon="4.66192">
        <ele>279.4</ele>
        <time>2021-07-13T10:05:45Z</time>
      </trkpt>
      <trkpt lat="44.82716" lon="4.66191">
        <ele>279.4</ele>
        <time>2021-07-13T10:05:47Z</time>
      </trkpt>
      <trkpt lat="44.82704" lon="4.66202">
        <ele>275.56</ele>
        <time>2021-07-13T10:05:57Z</time>
      </trkpt>
      <trkpt lat="44.82696" lon="4.66208">
        <ele>273.15</ele>
        <time>2021-07-13T10:06:11Z</time>
      </trkpt>
      <trkpt lat="44.82694" lon="4.66222">
        <ele>274.59</ele>
        <time>2021-07-13T10:06:22Z</time>
      </trkpt>
      <trkpt lat="44.82701" lon="4.66251">
        <ele>277.48</ele>
        <time>2021-07-13T10:06:35Z</time>
      </trkpt>
      <trkpt lat="44.82695" lon="4.66257">
        <ele>284.21</ele>
        <time>2021-07-13T10:06:48Z</time>
      </trkpt>
      <trkpt lat="44.82694" lon="4.66257">
        <ele>284.69</ele>
        <time>2021-07-13T10:06:49Z</time>
      </trkpt>
      <trkpt lat="44.82689" lon="4.66271">
        <ele>285.65</ele>
        <time>2021-07-13T10:07:00Z</time>
      </trkpt>
      <trkpt lat="44.82686" lon="4.66287">
        <ele>284.69</ele>
        <time>2021-07-13T10:07:10Z</time>
      </trkpt>
      <trkpt lat="44.82684" lon="4.66313">
        <ele>278.92</ele>
        <time>2021-07-13T10:07:23Z</time>
      </trkpt>
      <trkpt lat="44.82685" lon="4.66321">
        <ele>279.4</ele>
        <time>2021-07-13T10:07:32Z</time>
      </trkpt>
      <trkpt lat="44.82693" lon="4.66349">
        <ele>280.36</ele>
        <time>2021-07-13T10:07:42Z</time>
      </trkpt>
      <trkpt lat="44.82693" lon="4.66356">
        <ele>280.36</ele>
        <time>2021-07-13T10:07:47Z</time>
      </trkpt>
      <trkpt lat="44.82689" lon="4.66367">
        <ele>289.97</ele>
        <time>2021-07-13T10:08:00Z</time>
      </trkpt>
      <trkpt lat="44.82683" lon="4.66378">
        <ele>296.7</ele>
        <time>2021-07-13T10:08:14Z</time>
      </trkpt>
      <trkpt lat="44.82677" lon="4.66376">
        <ele>299.59</ele>
        <time>2021-07-13T10:08:25Z</time>
      </trkpt>
      <trkpt lat="44.82674" lon="4.66371">
        <ele>294.78</ele>
        <time>2021-07-13T10:08:43Z</time>
      </trkpt>
      <trkpt lat="44.8267" lon="4.66361">
        <ele>281.32</ele>
        <time>2021-07-13T10:09:02Z</time>
      </trkpt>
      <trkpt lat="44.82659" lon="4.66357">
        <ele>272.19</ele>
        <time>2021-07-13T10:09:14Z</time>
      </trkpt>
      <trkpt lat="44.8265" lon="4.6635">
        <ele>260.65</ele>
        <time>2021-07-13T10:09:29Z</time>
      </trkpt>
      <trkpt lat="44.82649" lon="4.66349">
        <ele>251.52</ele>
        <time>2021-07-13T10:09:46Z</time>
      </trkpt>
      <trkpt lat="44.82651" lon="4.66347">
        <ele>239.99</ele>
        <time>2021-07-13T10:10:11Z</time>
      </trkpt>
      <trkpt lat="44.82653" lon="4.66344">
        <ele>229.89</ele>
        <time>2021-07-13T10:10:32Z</time>
      </trkpt>
      <trkpt lat="44.82654" lon="4.66346">
        <ele>224.12</ele>
        <time>2021-07-13T10:10:47Z</time>
      </trkpt>
      <trkpt lat="44.82656" lon="4.6635">
        <ele>223.64</ele>
        <time>2021-07-13T10:10:51Z</time>
      </trkpt>
      <trkpt lat="44.82656" lon="4.66369">
        <ele>225.57</ele>
        <time>2021-07-13T10:11:05Z</time>
      </trkpt>
      <trkpt lat="44.82657" lon="4.6638">
        <ele>226.53</ele>
        <time>2021-07-13T10:11:12Z</time>
      </trkpt>
      <trkpt lat="44.82664" lon="4.66415">
        <ele>224.61</ele>
        <time>2021-07-13T10:11:32Z</time>
      </trkpt>
      <trkpt lat="44.82671" lon="4.66443">
        <ele>226.53</ele>
        <time>2021-07-13T10:11:48Z</time>
      </trkpt>
      <trkpt lat="44.82673" lon="4.66461">
        <ele>228.93</ele>
        <time>2021-07-13T10:11:59Z</time>
      </trkpt>
      <trkpt lat="44.82679" lon="4.66486">
        <ele>227.97</ele>
        <time>2021-07-13T10:12:10Z</time>
      </trkpt>
      <trkpt lat="44.82681" lon="4.6649">
        <ele>227.01</ele>
        <time>2021-07-13T10:12:12Z</time>
      </trkpt>
      <trkpt lat="44.82682" lon="4.66491">
        <ele>227.01</ele>
        <time>2021-07-13T10:12:13Z</time>
      </trkpt>
      <trkpt lat="44.82694" lon="4.66516">
        <ele>221.24</ele>
        <time>2021-07-13T10:12:27Z</time>
      </trkpt>
      <trkpt lat="44.82699" lon="4.66531">
        <ele>219.32</ele>
        <time>2021-07-13T10:12:39Z</time>
      </trkpt>
      <trkpt lat="44.82695" lon="4.6654">
        <ele>217.4</ele>
        <time>2021-07-13T10:12:51Z</time>
      </trkpt>
      <trkpt lat="44.82697" lon="4.66541">
        <ele>215.47</ele>
        <time>2021-07-13T10:13:05Z</time>
      </trkpt>
      <trkpt lat="44.82702" lon="4.66553">
        <ele>215.95</ele>
        <time>2021-07-13T10:13:19Z</time>
      </trkpt>
      <trkpt lat="44.82698" lon="4.66568">
        <ele>216.43</ele>
        <time>2021-07-13T10:13:33Z</time>
      </trkpt>
      <trkpt lat="44.82695" lon="4.66576">
        <ele>218.36</ele>
        <time>2021-07-13T10:13:47Z</time>
      </trkpt>
      <trkpt lat="44.82689" lon="4.66589">
        <ele>219.32</ele>
        <time>2021-07-13T10:13:58Z</time>
      </trkpt>
      <trkpt lat="44.82682" lon="4.666">
        <ele>219.32</ele>
        <time>2021-07-13T10:14:08Z</time>
      </trkpt>
      <trkpt lat="44.82679" lon="4.66611">
        <ele>220.28</ele>
        <time>2021-07-13T10:14:18Z</time>
      </trkpt>
      <trkpt lat="44.82679" lon="4.66624">
        <ele>217.4</ele>
        <time>2021-07-13T10:14:29Z</time>
      </trkpt>
      <trkpt lat="44.82677" lon="4.66635">
        <ele>212.59</ele>
        <time>2021-07-13T10:14:42Z</time>
      </trkpt>
      <trkpt lat="44.82674" lon="4.66636">
        <ele>212.59</ele>
        <time>2021-07-13T10:14:46Z</time>
      </trkpt>
      <trkpt lat="44.8267" lon="4.66647">
        <ele>220.76</ele>
        <time>2021-07-13T10:14:58Z</time>
      </trkpt>
      <trkpt lat="44.82675" lon="4.66673">
        <ele>217.4</ele>
        <time>2021-07-13T10:15:14Z</time>
      </trkpt>
      <trkpt lat="44.8266" lon="4.66678">
        <ele>220.28</ele>
        <time>2021-07-13T10:15:28Z</time>
      </trkpt>
      <trkpt lat="44.82659" lon="4.66678">
        <ele>220.76</ele>
        <time>2021-07-13T10:15:31Z</time>
      </trkpt>
      <trkpt lat="44.82655" lon="4.66682">
        <ele>219.8</ele>
        <time>2021-07-13T10:15:35Z</time>
      </trkpt>
      <trkpt lat="44.82648" lon="4.66693">
        <ele>205.38</ele>
        <time>2021-07-13T10:15:50Z</time>
      </trkpt>
      <trkpt lat="44.82643" lon="4.66694">
        <ele>197.69</ele>
        <time>2021-07-13T10:16:04Z</time>
      </trkpt>
      <trkpt lat="44.8264" lon="4.66694">
        <ele>193.36</ele>
        <time>2021-07-13T10:16:17Z</time>
      </trkpt>
      <trkpt lat="44.82641" lon="4.667">
        <ele>191.44</ele>
        <time>2021-07-13T10:16:24Z</time>
      </trkpt>
      <trkpt lat="44.82641" lon="4.66703">
        <ele>191.44</ele>
        <time>2021-07-13T10:16:26Z</time>
      </trkpt>
      <trkpt lat="44.82639" lon="4.66716">
        <ele>191.44</ele>
        <time>2021-07-13T10:16:35Z</time>
      </trkpt>
      <trkpt lat="44.8264" lon="4.6674">
        <ele>191.92</ele>
        <time>2021-07-13T10:16:48Z</time>
      </trkpt>
      <trkpt lat="44.82638" lon="4.66756">
        <ele>190</ele>
        <time>2021-07-13T10:16:56Z</time>
      </trkpt>
      <trkpt lat="44.82634" lon="4.6678">
        <ele>185.67</ele>
        <time>2021-07-13T10:17:09Z</time>
      </trkpt>
      <trkpt lat="44.8263" lon="4.6679">
        <ele>184.23</ele>
        <time>2021-07-13T10:17:16Z</time>
      </trkpt>
      <trkpt lat="44.82629" lon="4.66811">
        <ele>179.42</ele>
        <time>2021-07-13T10:17:29Z</time>
      </trkpt>
      <trkpt lat="44.82633" lon="4.66823">
        <ele>175.1</ele>
        <time>2021-07-13T10:17:37Z</time>
      </trkpt>
      <trkpt lat="44.82641" lon="4.66834">
        <ele>172.21</ele>
        <time>2021-07-13T10:17:50Z</time>
      </trkpt>
      <trkpt lat="44.82646" lon="4.66853">
        <ele>176.54</ele>
        <time>2021-07-13T10:18:02Z</time>
      </trkpt>
      <trkpt lat="44.82656" lon="4.66881">
        <ele>179.9</ele>
        <time>2021-07-13T10:18:16Z</time>
      </trkpt>
      <trkpt lat="44.82672" lon="4.66897">
        <ele>180.38</ele>
        <time>2021-07-13T10:18:30Z</time>
      </trkpt>
      <trkpt lat="44.82687" lon="4.669">
        <ele>179.9</ele>
        <time>2021-07-13T10:18:42Z</time>
      </trkpt>
      <trkpt lat="44.82692" lon="4.66901">
        <ele>180.38</ele>
        <time>2021-07-13T10:18:45Z</time>
      </trkpt>
      <trkpt lat="44.82709" lon="4.66903">
        <ele>183.27</ele>
        <time>2021-07-13T10:19:00Z</time>
      </trkpt>
      <trkpt lat="44.82714" lon="4.66902">
        <ele>184.71</ele>
        <time>2021-07-13T10:19:06Z</time>
      </trkpt>
      <trkpt lat="44.82722" lon="4.66895">
        <ele>188.08</ele>
        <time>2021-07-13T10:19:15Z</time>
      </trkpt>
      <trkpt lat="44.8273" lon="4.66892">
        <ele>190.48</ele>
        <time>2021-07-13T10:19:21Z</time>
      </trkpt>
      <trkpt lat="44.82738" lon="4.6689">
        <ele>191.92</ele>
        <time>2021-07-13T10:19:27Z</time>
      </trkpt>
      <trkpt lat="44.82744" lon="4.66893">
        <ele>192.4</ele>
        <time>2021-07-13T10:19:32Z</time>
      </trkpt>
      <trkpt lat="44.82752" lon="4.66903">
        <ele>184.23</ele>
        <time>2021-07-13T10:19:47Z</time>
      </trkpt>
      <trkpt lat="44.82752" lon="4.66907">
        <ele>184.23</ele>
        <time>2021-07-13T10:19:50Z</time>
      </trkpt>
      <trkpt lat="44.82757" lon="4.66938">
        <ele>181.83</ele>
        <time>2021-07-13T10:20:03Z</time>
      </trkpt>
      <trkpt lat="44.82758" lon="4.66944">
        <ele>181.83</ele>
        <time>2021-07-13T10:20:07Z</time>
      </trkpt>
      <trkpt lat="44.82751" lon="4.66961">
        <ele>176.54</ele>
        <time>2021-07-13T10:20:23Z</time>
      </trkpt>
      <trkpt lat="44.82748" lon="4.66976">
        <ele>180.38</ele>
        <time>2021-07-13T10:20:37Z</time>
      </trkpt>
      <trkpt lat="44.8275" lon="4.67">
        <ele>188.08</ele>
        <time>2021-07-13T10:20:50Z</time>
      </trkpt>
      <trkpt lat="44.82747" lon="4.67019">
        <ele>183.27</ele>
        <time>2021-07-13T10:21:01Z</time>
      </trkpt>
      <trkpt lat="44.82747" lon="4.67023">
        <ele>182.79</ele>
        <time>2021-07-13T10:21:03Z</time>
      </trkpt>
      <trkpt lat="44.82751" lon="4.6705">
        <ele>181.35</ele>
        <time>2021-07-13T10:21:18Z</time>
      </trkpt>
      <trkpt lat="44.82753" lon="4.67074">
        <ele>181.83</ele>
        <time>2021-07-13T10:21:33Z</time>
      </trkpt>
      <trkpt lat="44.82761" lon="4.67103">
        <ele>176.54</ele>
        <time>2021-07-13T10:21:47Z</time>
      </trkpt>
      <trkpt lat="44.82769" lon="4.67139">
        <ele>176.06</ele>
        <time>2021-07-13T10:22:04Z</time>
      </trkpt>
      <trkpt lat="44.82777" lon="4.67167">
        <ele>175.58</ele>
        <time>2021-07-13T10:22:19Z</time>
      </trkpt>
      <trkpt lat="44.82792" lon="4.67211">
        <ele>170.29</ele>
        <time>2021-07-13T10:22:41Z</time>
      </trkpt>
      <trkpt lat="44.82806" lon="4.67249">
        <ele>167.89</ele>
        <time>2021-07-13T10:23:01Z</time>
      </trkpt>
      <trkpt lat="44.82821" lon="4.67281">
        <ele>170.29</ele>
        <time>2021-07-13T10:23:20Z</time>
      </trkpt>
      <trkpt lat="44.82833" lon="4.67307">
        <ele>168.85</ele>
        <time>2021-07-13T10:23:36Z</time>
      </trkpt>
      <trkpt lat="44.82846" lon="4.67336">
        <ele>167.89</ele>
        <time>2021-07-13T10:23:54Z</time>
      </trkpt>
      <trkpt lat="44.8286" lon="4.67372">
        <ele>165</ele>
        <time>2021-07-13T10:24:13Z</time>
      </trkpt>
      <trkpt lat="44.82865" lon="4.67385">
        <ele>166.45</ele>
        <time>2021-07-13T10:24:25Z</time>
      </trkpt>
      <trkpt lat="44.82875" lon="4.6741">
        <ele>170.77</ele>
        <time>2021-07-13T10:24:42Z</time>
      </trkpt>
      <trkpt lat="44.82886" lon="4.6744">
        <ele>170.77</ele>
        <time>2021-07-13T10:24:59Z</time>
      </trkpt>
      <trkpt lat="44.82891" lon="4.6746">
        <ele>174.62</ele>
        <time>2021-07-13T10:25:12Z</time>
      </trkpt>
      <trkpt lat="44.829" lon="4.67483">
        <ele>176.06</ele>
        <time>2021-07-13T10:25:26Z</time>
      </trkpt>
      <trkpt lat="44.82906" lon="4.67501">
        <ele>177.5</ele>
        <time>2021-07-13T10:25:38Z</time>
      </trkpt>
      <trkpt lat="44.82911" lon="4.67531">
        <ele>182.79</ele>
        <time>2021-07-13T10:25:54Z</time>
      </trkpt>
      <trkpt lat="44.82912" lon="4.67534">
        <ele>183.75</ele>
        <time>2021-07-13T10:25:56Z</time>
      </trkpt>
      <trkpt lat="44.82921" lon="4.67551">
        <ele>192.4</ele>
        <time>2021-07-13T10:26:12Z</time>
      </trkpt>
      <trkpt lat="44.8292" lon="4.67554">
        <ele>194.8</ele>
        <time>2021-07-13T10:26:16Z</time>
      </trkpt>
      <trkpt lat="44.82906" lon="4.67557">
        <ele>199.61</ele>
        <time>2021-07-13T10:26:26Z</time>
      </trkpt>
      <trkpt lat="44.82903" lon="4.67604">
        <ele>183.27</ele>
        <time>2021-07-13T10:26:39Z</time>
      </trkpt>
      <trkpt lat="44.82903" lon="4.67608">
        <ele>183.27</ele>
        <time>2021-07-13T10:26:54Z</time>
      </trkpt>
      <trkpt lat="44.82901" lon="4.67605">
        <ele>183.27</ele>
        <time>2021-07-13T10:27:06Z</time>
      </trkpt>
      <trkpt lat="44.82907" lon="4.67592">
        <ele>183.75</ele>
        <time>2021-07-13T10:27:31Z</time>
      </trkpt>
      <trkpt lat="44.82903" lon="4.67589">
        <ele>179.9</ele>
        <time>2021-07-13T10:27:43Z</time>
      </trkpt>
      <trkpt lat="44.82906" lon="4.67576">
        <ele>176.54</ele>
        <time>2021-07-13T10:33:05Z</time>
      </trkpt>
      <trkpt lat="44.82898" lon="4.67599">
        <ele>163.56</ele>
        <time>2021-07-13T10:33:20Z</time>
      </trkpt>
      <trkpt lat="44.82905" lon="4.67611">
        <ele>154.43</ele>
        <time>2021-07-13T10:33:39Z</time>
      </trkpt>
      <trkpt lat="44.82902" lon="4.67619">
        <ele>153.47</ele>
        <time>2021-07-13T10:33:45Z</time>
      </trkpt>
      <trkpt lat="44.8289" lon="4.67626">
        <ele>159.24</ele>
        <time>2021-07-13T10:33:56Z</time>
      </trkpt>
      <trkpt lat="44.82867" lon="4.67636">
        <ele>161.16</ele>
        <time>2021-07-13T10:34:13Z</time>
      </trkpt>
      <trkpt lat="44.8285" lon="4.6765">
        <ele>165.96</ele>
        <time>2021-07-13T10:34:27Z</time>
      </trkpt>
      <trkpt lat="44.8283" lon="4.67663">
        <ele>164.04</ele>
        <time>2021-07-13T10:34:41Z</time>
      </trkpt>
      <trkpt lat="44.82814" lon="4.67672">
        <ele>163.08</ele>
        <time>2021-07-13T10:34:55Z</time>
      </trkpt>
      <trkpt lat="44.82793" lon="4.67682">
        <ele>163.56</ele>
        <time>2021-07-13T10:35:08Z</time>
      </trkpt>
      <trkpt lat="44.82773" lon="4.67694">
        <ele>163.08</ele>
        <time>2021-07-13T10:35:22Z</time>
      </trkpt>
      <trkpt lat="44.82746" lon="4.67706">
        <ele>160.2</ele>
        <time>2021-07-13T10:35:40Z</time>
      </trkpt>
      <trkpt lat="44.82718" lon="4.67719">
        <ele>156.83</ele>
        <time>2021-07-13T10:35:57Z</time>
      </trkpt>
      <trkpt lat="44.82693" lon="4.67732">
        <ele>155.87</ele>
        <time>2021-07-13T10:36:14Z</time>
      </trkpt>
      <trkpt lat="44.82669" lon="4.67746">
        <ele>155.39</ele>
        <time>2021-07-13T10:36:31Z</time>
      </trkpt>
      <trkpt lat="44.82644" lon="4.67764">
        <ele>153.95</ele>
        <time>2021-07-13T10:36:48Z</time>
      </trkpt>
      <trkpt lat="44.82635" lon="4.67794">
        <ele>153.95</ele>
        <time>2021-07-13T10:37:03Z</time>
      </trkpt>
      <trkpt lat="44.82631" lon="4.67824">
        <ele>160.68</ele>
        <time>2021-07-13T10:37:19Z</time>
      </trkpt>
      <trkpt lat="44.82628" lon="4.67846">
        <ele>164.04</ele>
        <time>2021-07-13T10:37:30Z</time>
      </trkpt>
      <trkpt lat="44.82627" lon="4.67881">
        <ele>171.25</ele>
        <time>2021-07-13T10:37:49Z</time>
      </trkpt>
      <trkpt lat="44.82629" lon="4.67908">
        <ele>177.5</ele>
        <time>2021-07-13T10:38:05Z</time>
      </trkpt>
      <trkpt lat="44.82635" lon="4.67939">
        <ele>175.58</ele>
        <time>2021-07-13T10:38:20Z</time>
      </trkpt>
      <trkpt lat="44.82643" lon="4.67976">
        <ele>165.48</ele>
        <time>2021-07-13T10:38:36Z</time>
      </trkpt>
      <trkpt lat="44.82643" lon="4.67987">
        <ele>163.56</ele>
        <time>2021-07-13T10:38:40Z</time>
      </trkpt>
      <trkpt lat="44.82643" lon="4.6799">
        <ele>163.08</ele>
        <time>2021-07-13T10:38:41Z</time>
      </trkpt>
      <trkpt lat="44.82646" lon="4.68014">
        <ele>160.68</ele>
        <time>2021-07-13T10:38:52Z</time>
      </trkpt>
      <trkpt lat="44.82648" lon="4.68027">
        <ele>160.2</ele>
        <time>2021-07-13T10:38:59Z</time>
      </trkpt>
      <trkpt lat="44.82647" lon="4.68042">
        <ele>162.6</ele>
        <time>2021-07-13T10:39:13Z</time>
      </trkpt>
      <trkpt lat="44.82647" lon="4.68046">
        <ele>161.64</ele>
        <time>2021-07-13T10:39:29Z</time>
      </trkpt>
      <trkpt lat="44.82648" lon="4.6805">
        <ele>160.2</ele>
        <time>2021-07-13T10:39:44Z</time>
      </trkpt>
      <trkpt lat="44.82647" lon="4.68053">
        <ele>159.24</ele>
        <time>2021-07-13T10:40:00Z</time>
      </trkpt>
      <trkpt lat="44.82649" lon="4.68054">
        <ele>158.75</ele>
        <time>2021-07-13T10:40:08Z</time>
      </trkpt>
      <trkpt lat="44.82646" lon="4.68053">
        <ele>158.75</ele>
        <time>2021-07-13T10:40:11Z</time>
      </trkpt>
      <trkpt lat="44.8264" lon="4.68053">
        <ele>162.6</ele>
        <time>2021-07-13T10:40:24Z</time>
      </trkpt>
      <trkpt lat="44.82629" lon="4.68043">
        <ele>167.89</ele>
        <time>2021-07-13T10:40:37Z</time>
      </trkpt>
      <trkpt lat="44.82625" lon="4.68038">
        <ele>169.81</ele>
        <time>2021-07-13T10:40:46Z</time>
      </trkpt>
      <trkpt lat="44.82616" lon="4.68027">
        <ele>170.29</ele>
        <time>2021-07-13T10:40:59Z</time>
      </trkpt>
      <trkpt lat="44.82616" lon="4.68023">
        <ele>167.89</ele>
        <time>2021-07-13T10:41:12Z</time>
      </trkpt>
      <trkpt lat="44.82615" lon="4.68017">
        <ele>159.72</ele>
        <time>2021-07-13T10:41:34Z</time>
      </trkpt>
      <trkpt lat="44.82616" lon="4.68017">
        <ele>156.83</ele>
        <time>2021-07-13T10:41:56Z</time>
      </trkpt>
      <trkpt lat="44.82615" lon="4.68018">
        <ele>150.58</ele>
        <time>2021-07-13T10:42:29Z</time>
      </trkpt>
      <trkpt lat="44.82614" lon="4.68018">
        <ele>149.62</ele>
        <time>2021-07-13T10:43:03Z</time>
      </trkpt>
      <trkpt lat="44.82614" lon="4.68017">
        <ele>147.7</ele>
        <time>2021-07-13T10:43:41Z</time>
      </trkpt>
      <trkpt lat="44.82613" lon="4.68019">
        <ele>146.26</ele>
        <time>2021-07-13T10:44:17Z</time>
      </trkpt>
      <trkpt lat="44.82613" lon="4.68017">
        <ele>148.18</ele>
        <time>2021-07-13T10:44:52Z</time>
      </trkpt>
      <trkpt lat="44.82612" lon="4.68019">
        <ele>148.18</ele>
        <time>2021-07-13T10:45:37Z</time>
      </trkpt>
      <trkpt lat="44.82612" lon="4.68019">
        <ele>145.3</ele>
        <time>2021-07-13T10:46:22Z</time>
      </trkpt>
      <trkpt lat="44.8261" lon="4.68016">
        <ele>146.26</ele>
        <time>2021-07-13T10:47:07Z</time>
      </trkpt>
      <trkpt lat="44.82613" lon="4.6802">
        <ele>150.1</ele>
        <time>2021-07-13T10:47:50Z</time>
      </trkpt>
      <trkpt lat="44.82612" lon="4.68015">
        <ele>148.66</ele>
        <time>2021-07-13T10:48:27Z</time>
      </trkpt>
      <trkpt lat="44.82613" lon="4.68014">
        <ele>146.26</ele>
        <time>2021-07-13T10:48:51Z</time>
      </trkpt>
    </trkseg>
  </trk>
</gpx>